Darstellungsparameter: Aktuell verwendete Einstellungen:
Skalierung der Graphiken ... ?
xyx+y,   Skalierungsfaktor:      Skalierung: Modus: x, Faktor: 1
Darstellungszeitraum ... ?
Vom - - bis: - -   Zeitraum: 05.06.2020 - 11.06.2020
Min/Max/Avg-Anzeige ... ?
Zeige MMA aktuell
Zeige MMA Monat
Zeige MMA alles
Zeige --A aktuell
Zeige --A Monat
Zeige --A alles
Keine MMA-Anzeige
MMA:
Keine MMA-Graphiken
MMA-Basis: 05.06.2020 - 11.06.2020
Quicknavigation für Darstellung... ?
Tage:      1T, 2T, 3T, 5T -1T -2T -3T -5T +1T +2T +3T +5T
Wochen: 1W, 2W, 3W -1W -2W -3W +1W +2W +3W
Monate: 1M, 3M, 6M -1M -3M -6M +1M +3M +6M
Jahre:    1J, 3J, 5J, 10J -1J -3J -5J -10J +1J +3J +5J +10J
Nutze für die Darstellung ... ?
Originaldaten oder Mittelwerte auf ...
Stundenbasis Tagesbasis Wochenbasis
Monatsbasis Jahresbasis      Datenbasis: Original-Daten
Darstellen als:
Statistik (Auto) Statistik J:M      Darstellung:
Zur Graphik,    zurück zur Übersicht aller Sensoren.
 
Tabellarische Datenbersicht: ?
 
Sensor: Nr:Datum:Temp:Feuchte:Taupunkt:
Aussen-T/F 1 05-06-2020 00:00:00 11.1 C 95 % 10.33 C
2 05-06-2020 00:05:00 11.1 C 95 % 10.33 C
3 05-06-2020 00:10:00 11.2 C 95 % 10.43 C
4 05-06-2020 00:15:00 11.2 C 95 % 10.43 C
5 05-06-2020 00:20:00 11.1 C 93 % 10.01 C
6 05-06-2020 00:25:00 11.1 C 92 % 9.85 C
7 05-06-2020 00:30:00 11.2 C 92 % 9.95 C
8 05-06-2020 00:35:00 11.3 C 91 % 9.89 C
9 05-06-2020 00:40:00 11.3 C 91 % 9.89 C
10 05-06-2020 00:45:00 11.2 C 91 % 9.79 C
11 05-06-2020 00:50:00 11.2 C 91 % 9.79 C
12 05-06-2020 00:55:00 11.2 C 91 % 9.79 C
13 05-06-2020 01:00:00 11.1 C 91 % 9.69 C
14 05-06-2020 01:05:00 11.2 C 91 % 9.79 C
15 05-06-2020 01:10:00 11.1 C 91 % 9.69 C
16 05-06-2020 01:15:00 11.1 C 90 % 9.52 C
17 05-06-2020 01:20:00 11 C 90 % 9.42 C
18 05-06-2020 01:25:00 11.1 C 91 % 9.69 C
19 05-06-2020 01:30:00 11.1 C 91 % 9.69 C
20 05-06-2020 01:35:00 11 C 91 % 9.59 C
21 05-06-2020 01:40:00 11 C 90 % 9.42 C
22 05-06-2020 01:45:00 11 C 90 % 9.42 C
23 05-06-2020 01:50:00 10.9 C 88 % 8.99 C
24 05-06-2020 01:55:00 11 C 87 % 8.92 C
25 05-06-2020 02:00:00 11.1 C 87 % 9.02 C
Sensor: Nr:Datum:Temp:Feuchte:Taupunkt:
Aussen-T/F 26 05-06-2020 02:05:00 11.1 C 86 % 8.85 C
27 05-06-2020 02:10:00 11.1 C 86 % 8.85 C
28 05-06-2020 02:15:00 11.1 C 85 % 8.68 C
29 05-06-2020 02:20:00 11.1 C 85 % 8.68 C
30 05-06-2020 02:25:00 11.1 C 85 % 8.68 C
31 05-06-2020 02:30:00 11.1 C 86 % 8.85 C
32 05-06-2020 02:35:00 11.1 C 86 % 8.85 C
33 05-06-2020 02:40:00 10.9 C 86 % 8.65 C
34 05-06-2020 02:45:00 10.8 C 87 % 8.73 C
35 05-06-2020 02:50:00 10.8 C 87 % 8.73 C
36 05-06-2020 02:55:00 10.7 C 88 % 8.8 C
37 05-06-2020 03:00:00 10.7 C 88 % 8.8 C
38 05-06-2020 03:05:00 10.6 C 88 % 8.7 C
39 05-06-2020 03:10:00 10.6 C 89 % 8.86 C
40 05-06-2020 03:15:00 10.5 C 88 % 8.6 C
41 05-06-2020 03:20:00 10.5 C 88 % 8.6 C
42 05-06-2020 03:25:00 10.4 C 88 % 8.5 C
43 05-06-2020 03:30:00 10.4 C 88 % 8.5 C
44 05-06-2020 03:35:00 10.5 C 88 % 8.6 C
45 05-06-2020 03:40:00 10.5 C 87 % 8.43 C
46 05-06-2020 03:45:00 10.5 C 87 % 8.43 C
47 05-06-2020 03:50:00 10.6 C 87 % 8.53 C
48 05-06-2020 03:55:00 10.6 C 88 % 8.7 C
49 05-06-2020 04:00:00 10.4 C 88 % 8.5 C
50 05-06-2020 04:05:00 10.3 C 88 % 8.4 C
Sensor: Nr:Datum:Temp:Feuchte:Taupunkt:
Aussen-T/F 51 05-06-2020 04:10:00 10.1 C 88 % 8.21 C
52 05-06-2020 04:15:00 9.8 C 89 % 8.08 C
53 05-06-2020 04:20:00 9.6 C 89 % 7.88 C
54 05-06-2020 04:25:00 9.4 C 89 % 7.68 C
55 05-06-2020 04:30:00 9.3 C 90 % 7.75 C
56 05-06-2020 04:35:00 9.2 C 91 % 7.81 C
57 05-06-2020 04:40:00 9.1 C 91 % 7.71 C
58 05-06-2020 04:45:00 8.9 C 91 % 7.51 C
59 05-06-2020 04:50:00 8.9 C 91 % 7.51 C
60 05-06-2020 04:55:00 8.8 C 92 % 7.57 C
61 05-06-2020 05:00:00 8.8 C 92 % 7.57 C
62 05-06-2020 05:05:00 8.8 C 93 % 7.73 C
63 05-06-2020 05:10:00 8.8 C 93 % 7.73 C
64 05-06-2020 05:15:00 8.8 C 93 % 7.73 C
65 05-06-2020 05:20:00 8.8 C 93 % 7.73 C
66 05-06-2020 05:25:00 8.9 C 93 % 7.83 C
67 05-06-2020 05:30:00 8.9 C 93 % 7.83 C
68 05-06-2020 05:35:00 9 C 93 % 7.93 C
69 05-06-2020 05:40:00 9 C 93 % 7.93 C
70 05-06-2020 05:45:00 9.1 C 94 % 8.19 C
71 05-06-2020 05:50:00 9.1 C 94 % 8.19 C
72 05-06-2020 05:55:00 9.1 C 94 % 8.19 C
73 05-06-2020 06:00:00 9.1 C 94 % 8.19 C
74 05-06-2020 06:05:00 9.1 C 94 % 8.19 C
75 05-06-2020 06:10:00 9.2 C 94 % 8.29 C
Sensor: Nr:Datum:Temp:Feuchte:Taupunkt:
Aussen-T/F 76 05-06-2020 06:15:00 9.2 C 93 % 8.13 C
77 05-06-2020 06:20:00 9.3 C 93 % 8.23 C
78 05-06-2020 06:25:00 9.3 C 93 % 8.23 C
79 05-06-2020 06:30:00 9.4 C 93 % 8.33 C
80 05-06-2020 06:35:00 9.5 C 92 % 8.27 C
81 05-06-2020 06:40:00 9.5 C 92 % 8.27 C
82 05-06-2020 06:45:00 9.6 C 92 % 8.37 C
83 05-06-2020 06:50:00 9.6 C 91 % 8.21 C
84 05-06-2020 06:55:00 9.7 C 91 % 8.3 C
85 05-06-2020 07:00:00 9.7 C 91 % 8.3 C
86 05-06-2020 07:05:00 9.7 C 91 % 8.3 C
87 05-06-2020 07:10:00 9.8 C 91 % 8.4 C
88 05-06-2020 07:15:00 9.8 C 90 % 8.24 C
89 05-06-2020 07:20:00 9.9 C 91 % 8.5 C
90 05-06-2020 07:25:00 10 C 90 % 8.44 C
91 05-06-2020 07:30:00 10.1 C 90 % 8.54 C
92 05-06-2020 07:35:00 10.3 C 89 % 8.57 C
93 05-06-2020 07:40:00 10.4 C 89 % 8.67 C
94 05-06-2020 07:45:00 10.6 C 88 % 8.7 C
95 05-06-2020 07:50:00 10.7 C 88 % 8.8 C
96 05-06-2020 07:55:00 10.7 C 88 % 8.8 C
97 05-06-2020 08:00:00 10.7 C 87 % 8.63 C
98 05-06-2020 08:05:00 10.7 C 88 % 8.8 C
99 05-06-2020 08:10:00 10.7 C 87 % 8.63 C
100 05-06-2020 08:15:00 10.7 C 87 % 8.63 C
Sensor: Nr:Datum:Temp:Feuchte:Taupunkt:
Aussen-T/F 101 05-06-2020 08:20:00 10.7 C 87 % 8.63 C
102 05-06-2020 08:25:00 10.6 C 87 % 8.53 C
103 05-06-2020 08:30:00 10.7 C 87 % 8.63 C
104 05-06-2020 08:35:00 10.7 C 88 % 8.8 C
105 05-06-2020 08:40:00 10.8 C 88 % 8.89 C
106 05-06-2020 08:45:00 10.8 C 87 % 8.73 C
107 05-06-2020 08:50:00 11 C 87 % 8.92 C
108 05-06-2020 08:55:00 11.2 C 87 % 9.12 C
109 05-06-2020 09:00:00 11.3 C 87 % 9.22 C
110 05-06-2020 09:05:00 11.4 C 87 % 9.32 C
111 05-06-2020 09:10:00 11.6 C 86 % 9.34 C
112 05-06-2020 09:15:00 11.6 C 85 % 9.17 C
113 05-06-2020 09:20:00 11.6 C 84 % 8.99 C
114 05-06-2020 09:25:00 11.7 C 83 % 8.91 C
115 05-06-2020 09:30:00 11.8 C 84 % 9.19 C
116 05-06-2020 09:35:00 11.8 C 83 % 9.01 C
117 05-06-2020 09:40:00 11.9 C 83 % 9.11 C
118 05-06-2020 09:45:00 12 C 83 % 9.21 C
119 05-06-2020 09:50:00 12.1 C 84 % 9.48 C
120 05-06-2020 09:55:00 12.1 C 82 % 9.12 C
121 05-06-2020 10:00:00 12.1 C 82 % 9.12 C
122 05-06-2020 10:05:00 12.2 C 82 % 9.22 C
123 05-06-2020 10:10:00 12.2 C 82 % 9.22 C
124 05-06-2020 10:15:00 12.3 C 82 % 9.32 C
125 05-06-2020 10:20:00 12.4 C 81 % 9.23 C
Sensor: Nr:Datum:Temp:Feuchte:Taupunkt:
Aussen-T/F 126 05-06-2020 10:25:00 12.5 C 81 % 9.33 C
127 05-06-2020 10:30:00 12.7 C 81 % 9.53 C
128 05-06-2020 10:35:00 12.8 C 80 % 9.44 C
129 05-06-2020 10:40:00 12.9 C 80 % 9.54 C
130 05-06-2020 10:45:00 13.2 C 80 % 9.83 C
131 05-06-2020 10:50:00 13.4 C 79 % 9.84 C
132 05-06-2020 10:55:00 13.7 C 77 % 9.75 C
133 05-06-2020 11:00:00 14.1 C 76 % 9.94 C
134 05-06-2020 11:05:00 14.3 C 74 % 9.73 C
135 05-06-2020 11:10:00 14.6 C 73 % 9.82 C
136 05-06-2020 11:15:00 14.4 C 71 % 9.21 C
137 05-06-2020 11:20:00 14.1 C 71 % 8.93 C
138 05-06-2020 11:25:00 13.8 C 73 % 9.05 C
139 05-06-2020 11:30:00 13.8 C 73 % 9.05 C
140 05-06-2020 11:35:00 13.7 C 73 % 8.95 C
141 05-06-2020 11:40:00 13.7 C 74 % 9.15 C
142 05-06-2020 11:45:00 13.6 C 73 % 8.86 C
143 05-06-2020 11:50:00 13.6 C 73 % 8.86 C
144 05-06-2020 11:55:00 13.5 C 74 % 8.96 C
145 05-06-2020 12:00:00 13.6 C 73 % 8.86 C
146 05-06-2020 12:05:00 13.8 C 75 % 9.45 C
147 05-06-2020 12:10:00 14.1 C 72 % 9.13 C
148 05-06-2020 12:15:00 14.3 C 72 % 9.33 C
149 05-06-2020 12:20:00 14.4 C 71 % 9.21 C
150 05-06-2020 12:25:00 14.6 C 72 % 9.61 C
Sensor: Nr:Datum:Temp:Feuchte:Taupunkt:
Aussen-T/F 151 05-06-2020 12:30:00 14.6 C 70 % 9.2 C
152 05-06-2020 12:35:00 14.5 C 70 % 9.1 C
153 05-06-2020 12:40:00 14.5 C 71 % 9.31 C
154 05-06-2020 12:45:00 14.7 C 70 % 9.29 C
155 05-06-2020 12:50:00 14.8 C 69 % 9.17 C
156 05-06-2020 12:55:00 14.9 C 69 % 9.27 C
157 05-06-2020 13:00:00 14.9 C 69 % 9.27 C
158 05-06-2020 13:05:00 14.8 C 69 % 9.17 C
159 05-06-2020 13:10:00 14.5 C 69 % 8.89 C
160 05-06-2020 13:15:00 14.2 C 69 % 8.6 C
161 05-06-2020 13:20:00 14.1 C 70 % 8.72 C
162 05-06-2020 13:25:00 13.9 C 71 % 8.73 C
163 05-06-2020 13:30:00 13.8 C 70 % 8.43 C
164 05-06-2020 13:35:00 13.9 C 72 % 8.94 C
165 05-06-2020 13:40:00 13.9 C 73 % 9.15 C
166 05-06-2020 13:45:00 13.9 C 73 % 9.15 C
167 05-06-2020 13:50:00 14 C 73 % 9.24 C
168 05-06-2020 13:55:00 14.2 C 74 % 9.64 C
169 05-06-2020 14:00:00 14.2 C 73 % 9.43 C
170 05-06-2020 14:05:00 14.2 C 72 % 9.23 C
171 05-06-2020 14:10:00 14.2 C 74 % 9.64 C
172 05-06-2020 14:15:00 14.1 C 75 % 9.74 C
173 05-06-2020 14:20:00 13.9 C 78 % 10.13 C
174 05-06-2020 14:25:00 13.7 C 78 % 9.94 C
175 05-06-2020 14:30:00 13.6 C 79 % 10.03 C
Sensor: Nr:Datum:Temp:Feuchte:Taupunkt:
Aussen-T/F 176 05-06-2020 14:35:00 13.5 C 80 % 10.12 C
177 05-06-2020 14:40:00 13.4 C 82 % 10.39 C
178 05-06-2020 14:45:00 13.3 C 83 % 10.48 C
179 05-06-2020 14:50:00 13.2 C 84 % 10.56 C
180 05-06-2020 14:55:00 13.2 C 84 % 10.56 C
181 05-06-2020 15:00:00 13.2 C 86 % 10.91 C
182 05-06-2020 15:05:00 13.3 C 86 % 11.01 C
183 05-06-2020 15:10:00 13.4 C 87 % 11.28 C
184 05-06-2020 15:15:00 13.6 C 86 % 11.3 C
185 05-06-2020 15:20:00 13.7 C 87 % 11.58 C
186 05-06-2020 15:25:00 13.8 C 85 % 11.32 C
187 05-06-2020 15:30:00 13.9 C 86 % 11.6 C
188 05-06-2020 15:35:00 14 C 84 % 11.34 C
189 05-06-2020 15:40:00 14.1 C 85 % 11.62 C
190 05-06-2020 15:45:00 14 C 83 % 11.16 C
191 05-06-2020 15:50:00 13.9 C 84 % 11.24 C
192 05-06-2020 15:55:00 13.8 C 84 % 11.15 C
193 05-06-2020 16:00:00 13.7 C 84 % 11.05 C
194 05-06-2020 16:05:00 13.7 C 85 % 11.23 C
195 05-06-2020 16:10:00 13.7 C 85 % 11.23 C
196 05-06-2020 16:15:00 13.4 C 86 % 11.11 C
197 05-06-2020 16:20:00 13.1 C 87 % 10.99 C
198 05-06-2020 16:25:00 12.8 C 89 % 11.03 C
199 05-06-2020 16:30:00 12.5 C 91 % 11.07 C
200 05-06-2020 16:35:00 12.2 C 90 % 10.61 C
Sensor: Nr:Datum:Temp:Feuchte:Taupunkt:
Aussen-T/F 201 05-06-2020 16:40:00 11.9 C 91 % 10.48 C
202 05-06-2020 16:45:00 11.7 C 91 % 10.28 C
203 05-06-2020 16:50:00 11.4 C 91 % 9.98 C
204 05-06-2020 16:55:00 11.3 C 91 % 9.89 C
205 05-06-2020 17:00:00 11.2 C 92 % 9.95 C
206 05-06-2020 17:05:00 11.2 C 92 % 9.95 C
207 05-06-2020 17:10:00 11.2 C 93 % 10.11 C
208 05-06-2020 17:15:00 11.3 C 93 % 10.21 C
209 05-06-2020 17:20:00 12.2 C 95 % 11.42 C
210 05-06-2020 17:25:00 13.1 C 96 % 12.48 C
211 05-06-2020 17:30:00 12.9 C 91 % 11.47 C
212 05-06-2020 17:35:00 12.8 C 90 % 11.2 C
213 05-06-2020 17:40:00 12.8 C 91 % 11.37 C
214 05-06-2020 17:45:00 12.6 C 89 % 10.84 C
215 05-06-2020 17:50:00 12.6 C 89 % 10.84 C
216 05-06-2020 17:55:00 12.6 C 90 % 11 C
217 05-06-2020 18:00:00 12.4 C 89 % 10.64 C
218 05-06-2020 18:05:00 12.2 C 85 % 9.76 C
219 05-06-2020 18:10:00 12.1 C 87 % 10 C
220 05-06-2020 18:15:00 11.9 C 89 % 10.15 C
221 05-06-2020 18:20:00 11.8 C 89 % 10.05 C
222 05-06-2020 18:25:00 11.4 C 88 % 9.49 C
223 05-06-2020 18:30:00 11.2 C 90 % 9.62 C
224 05-06-2020 18:35:00 11.1 C 91 % 9.69 C
225 05-06-2020 18:40:00 11.1 C 91 % 9.69 C
Sensor: Nr:Datum:Temp:Feuchte:Taupunkt:
Aussen-T/F 226 05-06-2020 18:45:00 11.1 C 91 % 9.69 C
227 05-06-2020 18:50:00 11 C 91 % 9.59 C
228 05-06-2020 18:55:00 11 C 91 % 9.59 C
229 05-06-2020 19:00:00 11.1 C 92 % 9.85 C
230 05-06-2020 19:05:00 11.2 C 92 % 9.95 C
231 05-06-2020 19:10:00 11.2 C 92 % 9.95 C
232 05-06-2020 19:15:00 11.2 C 92 % 9.95 C
233 05-06-2020 19:20:00 11.3 C 93 % 10.21 C
234 05-06-2020 19:25:00 11.6 C 94 % 10.67 C
235 05-06-2020 19:30:00 11.8 C 93 % 10.71 C
236 05-06-2020 19:35:00 11.7 C 89 % 9.95 C
237 05-06-2020 19:40:00 11.7 C 86 % 9.44 C
238 05-06-2020 19:45:00 11.7 C 86 % 9.44 C
239 05-06-2020 19:50:00 11.7 C 87 % 9.61 C
240 05-06-2020 19:55:00 11.7 C 88 % 9.78 C
241 05-06-2020 20:00:00 11.6 C 88 % 9.68 C
242 05-06-2020 20:05:00 11.7 C 90 % 10.12 C
243 05-06-2020 20:10:00 11.8 C 87 % 9.71 C
244 05-06-2020 20:15:00 11.6 C 86 % 9.34 C
245 05-06-2020 20:20:00 11.4 C 85 % 8.97 C
246 05-06-2020 20:25:00 11.2 C 86 % 8.95 C
247 05-06-2020 20:30:00 11.2 C 88 % 9.29 C
248 05-06-2020 20:35:00 11 C 87 % 8.92 C
249 05-06-2020 20:40:00 10.9 C 88 % 8.99 C
250 05-06-2020 20:45:00 10.8 C 88 % 8.89 C
Sensor: Nr:Datum:Temp:Feuchte:Taupunkt:
Aussen-T/F 251 05-06-2020 20:50:00 10.8 C 89 % 9.06 C
252 05-06-2020 20:55:00 10.7 C 89 % 8.96 C
253 05-06-2020 21:00:00 10.6 C 89 % 8.86 C
254 05-06-2020 21:05:00 10.5 C 89 % 8.77 C
255 05-06-2020 21:10:00 10.4 C 89 % 8.67 C
256 05-06-2020 21:15:00 10.4 C 88 % 8.5 C
257 05-06-2020 21:20:00 10.5 C 89 % 8.77 C
258 05-06-2020 21:25:00 10.4 C 88 % 8.5 C
259 05-06-2020 21:30:00 10.4 C 88 % 8.5 C
260 05-06-2020 21:35:00 10.4 C 88 % 8.5 C
261 05-06-2020 21:40:00 10.3 C 88 % 8.4 C
262 05-06-2020 21:45:00 10.3 C 87 % 8.23 C
263 05-06-2020 21:50:00 10.3 C 88 % 8.4 C
264 05-06-2020 21:55:00 10.3 C 88 % 8.4 C
265 05-06-2020 22:00:00 10.3 C 87 % 8.23 C
266 05-06-2020 22:05:00 10.3 C 87 % 8.23 C
267 05-06-2020 22:10:00 10.2 C 87 % 8.14 C
268 05-06-2020 22:15:00 10.3 C 86 % 8.06 C
269 05-06-2020 22:20:00 10.3 C 87 % 8.23 C
270 05-06-2020 22:25:00 10.2 C 87 % 8.14 C
271 05-06-2020 22:30:00 10.1 C 88 % 8.21 C
272 05-06-2020 22:35:00 10.1 C 88 % 8.21 C
273 05-06-2020 22:40:00 10 C 88 % 8.11 C
274 05-06-2020 22:45:00 10 C 87 % 7.94 C
275 05-06-2020 22:50:00 10 C 87 % 7.94 C
Sensor: Nr:Datum:Temp:Feuchte:Taupunkt:
Aussen-T/F 276 05-06-2020 22:55:00 10 C 87 % 7.94 C
277 05-06-2020 23:00:00 10 C 87 % 7.94 C
278 05-06-2020 23:05:00 9.9 C 87 % 7.84 C
279 05-06-2020 23:10:00 9.8 C 88 % 7.91 C
280 05-06-2020 23:15:00 9.7 C 88 % 7.81 C
281 05-06-2020 23:20:00 9.7 C 88 % 7.81 C
282 05-06-2020 23:25:00 9.7 C 88 % 7.81 C
283 05-06-2020 23:30:00 9.8 C 87 % 7.74 C
284 05-06-2020 23:35:00 9.8 C 88 % 7.91 C
285 05-06-2020 23:40:00 9.8 C 87 % 7.74 C
286 05-06-2020 23:45:00 9.8 C 87 % 7.74 C
287 05-06-2020 23:50:00 9.8 C 87 % 7.74 C
288 05-06-2020 23:55:00 9.8 C 86 % 7.57 C
289 06-06-2020 00:00:00 9.8 C 87 % 7.74 C
290 06-06-2020 00:05:00 9.7 C 86 % 7.47 C
291 06-06-2020 00:10:00 9.7 C 87 % 7.64 C
292 06-06-2020 00:15:00 9.7 C 85 % 7.3 C
293 06-06-2020 00:20:00 9.7 C 86 % 7.47 C
294 06-06-2020 00:25:00 9.7 C 85 % 7.3 C
295 06-06-2020 00:30:00 9.7 C 84 % 7.13 C
296 06-06-2020 00:35:00 9.7 C 86 % 7.47 C
297 06-06-2020 00:40:00 9.6 C 85 % 7.21 C
298 06-06-2020 00:45:00 9.6 C 85 % 7.21 C
299 06-06-2020 00:50:00 9.6 C 85 % 7.21 C
300 06-06-2020 00:55:00 9.5 C 86 % 7.28 C
Sensor: Nr:Datum:Temp:Feuchte:Taupunkt:
Aussen-T/F 301 06-06-2020 01:00:00 9.4 C 86 % 7.18 C
302 06-06-2020 01:05:00 9.3 C 86 % 7.08 C
303 06-06-2020 01:10:00 9.3 C 86 % 7.08 C
304 06-06-2020 01:15:00 9.4 C 86 % 7.18 C
305 06-06-2020 01:20:00 9.4 C 86 % 7.18 C
306 06-06-2020 01:25:00 9.3 C 87 % 7.25 C
307 06-06-2020 01:30:00 9.2 C 87 % 7.15 C
308 06-06-2020 01:35:00 9.1 C 86 % 6.89 C
309 06-06-2020 01:40:00 9.1 C 87 % 7.05 C
310 06-06-2020 01:45:00 8.9 C 87 % 6.86 C
311 06-06-2020 01:50:00 8.8 C 88 % 6.93 C
312 06-06-2020 01:55:00 8.7 C 88 % 6.83 C
313 06-06-2020 02:00:00 8.6 C 89 % 6.89 C
314 06-06-2020 02:05:00 8.5 C 89 % 6.79 C
315 06-06-2020 02:10:00 8.4 C 89 % 6.7 C
316 06-06-2020 02:15:00 8.3 C 89 % 6.6 C
317 06-06-2020 02:20:00 8.3 C 89 % 6.6 C
318 06-06-2020 02:25:00 8.3 C 90 % 6.76 C
319 06-06-2020 02:30:00 8.3 C 89 % 6.6 C
320 06-06-2020 02:35:00 8.3 C 90 % 6.76 C
321 06-06-2020 02:40:00 8.3 C 90 % 6.76 C
322 06-06-2020 02:45:00 8.3 C 90 % 6.76 C
323 06-06-2020 02:50:00 8.3 C 90 % 6.76 C
324 06-06-2020 02:55:00 8.2 C 90 % 6.66 C
325 06-06-2020 03:00:00 8.1 C 91 % 6.72 C
Sensor: Nr:Datum:Temp:Feuchte:Taupunkt:
Aussen-T/F 326 06-06-2020 03:05:00 8.1 C 91 % 6.72 C
327 06-06-2020 03:10:00 7.9 C 91 % 6.52 C
328 06-06-2020 03:15:00 7.9 C 91 % 6.52 C
329 06-06-2020 03:20:00 7.9 C 92 % 6.68 C
330 06-06-2020 03:25:00 7.9 C 92 % 6.68 C
331 06-06-2020 03:30:00 7.9 C 92 % 6.68 C
332 06-06-2020 03:35:00 8.1 C 92 % 6.88 C
333 06-06-2020 03:40:00 8.1 C 92 % 6.88 C
334 06-06-2020 03:45:00 8.1 C 93 % 7.04 C
335 06-06-2020 03:50:00 8.2 C 93 % 7.14 C
336 06-06-2020 03:55:00 8.3 C 93 % 7.24 C
337 06-06-2020 04:00:00 8.3 C 93 % 7.24 C
338 06-06-2020 04:05:00 8.4 C 93 % 7.34 C
339 06-06-2020 04:10:00 8.4 C 93 % 7.34 C
340 06-06-2020 04:15:00 8.4 C 93 % 7.34 C
341 06-06-2020 04:20:00 8.5 C 93 % 7.43 C
342 06-06-2020 04:25:00 8.5 C 93 % 7.43 C
343 06-06-2020 04:30:00 8.6 C 93 % 7.53 C
344 06-06-2020 04:35:00 8.6 C 92 % 7.38 C
345 06-06-2020 04:40:00 8.6 C 92 % 7.38 C
346 06-06-2020 04:45:00 8.7 C 92 % 7.47 C
347 06-06-2020 04:50:00 8.7 C 91 % 7.32 C
348 06-06-2020 04:55:00 8.7 C 91 % 7.32 C
349 06-06-2020 05:00:00 8.6 C 91 % 7.22 C
350 06-06-2020 05:05:00 8.6 C 91 % 7.22 C
Sensor: Nr:Datum:Temp:Feuchte:Taupunkt:
Aussen-T/F 351 06-06-2020 05:10:00 8.6 C 92 % 7.38 C
352 06-06-2020 05:15:00 8.6 C 92 % 7.38 C
353 06-06-2020 05:20:00 8.6 C 92 % 7.38 C
354 06-06-2020 05:25:00 8.6 C 92 % 7.38 C
355 06-06-2020 05:30:00 8.6 C 92 % 7.38 C
356 06-06-2020 05:35:00 8.6 C 92 % 7.38 C
357 06-06-2020 05:40:00 8.6 C 92 % 7.38 C
358 06-06-2020 05:45:00 8.6 C 92 % 7.38 C
359 06-06-2020 05:50:00 8.6 C 92 % 7.38 C
360 06-06-2020 05:55:00 8.6 C 92 % 7.38 C
361 06-06-2020 06:00:00 8.7 C 93 % 7.63 C
362 06-06-2020 06:05:00 8.7 C 93 % 7.63 C
363 06-06-2020 06:10:00 8.7 C 93 % 7.63 C
364 06-06-2020 06:15:00 8.7 C 93 % 7.63 C
365 06-06-2020 06:20:00 8.8 C 93 % 7.73 C
366 06-06-2020 06:25:00 8.8 C 93 % 7.73 C
367 06-06-2020 06:30:00 8.9 C 93 % 7.83 C
368 06-06-2020 06:35:00 9 C 93 % 7.93 C
369 06-06-2020 06:40:00 9.1 C 93 % 8.03 C
370 06-06-2020 06:45:00 9.2 C 93 % 8.13 C
371 06-06-2020 06:50:00 9.4 C 93 % 8.33 C
372 06-06-2020 06:55:00 9.6 C 93 % 8.53 C
373 06-06-2020 07:00:00 9.7 C 93 % 8.62 C
374 06-06-2020 07:05:00 9.8 C 92 % 8.56 C
375 06-06-2020 07:10:00 9.9 C 92 % 8.66 C
Sensor: Nr:Datum:Temp:Feuchte:Taupunkt:
Aussen-T/F 376 06-06-2020 07:15:00 10.1 C 92 % 8.86 C
377 06-06-2020 07:20:00 10.2 C 91 % 8.8 C
378 06-06-2020 07:25:00 10.4 C 90 % 8.83 C
379 06-06-2020 07:30:00 10.5 C 90 % 8.93 C
380 06-06-2020 07:35:00 10.6 C 89 % 8.86 C
381 06-06-2020 07:40:00 10.7 C 88 % 8.8 C
382 06-06-2020 07:45:00 10.8 C 88 % 8.89 C
383 06-06-2020 07:50:00 10.9 C 88 % 8.99 C
384 06-06-2020 07:55:00 11.1 C 87 % 9.02 C
385 06-06-2020 08:00:00 11.2 C 86 % 8.95 C
386 06-06-2020 08:05:00 11.2 C 86 % 8.95 C
387 06-06-2020 08:10:00 11.3 C 85 % 8.87 C
388 06-06-2020 08:15:00 11.4 C 86 % 9.14 C
389 06-06-2020 08:20:00 11.3 C 85 % 8.87 C
390 06-06-2020 08:25:00 11.3 C 85 % 8.87 C
391 06-06-2020 08:30:00 11.3 C 86 % 9.05 C
392 06-06-2020 08:35:00 11.4 C 85 % 8.97 C
393 06-06-2020 08:40:00 11.4 C 85 % 8.97 C
394 06-06-2020 08:45:00 11.4 C 86 % 9.14 C
395 06-06-2020 08:50:00 11.5 C 85 % 9.07 C
396 06-06-2020 08:55:00 11.6 C 85 % 9.17 C
397 06-06-2020 09:00:00 11.7 C 85 % 9.27 C
398 06-06-2020 09:05:00 11.9 C 84 % 9.29 C
399 06-06-2020 09:10:00 12.1 C 83 % 9.3 C
400 06-06-2020 09:15:00 12.3 C 82 % 9.32 C
Sensor: Nr:Datum:Temp:Feuchte:Taupunkt:
Aussen-T/F 401 06-06-2020 09:20:00 12.4 C 82 % 9.42 C
402 06-06-2020 09:25:00 12.5 C 82 % 9.51 C
403 06-06-2020 09:30:00 12.6 C 81 % 9.43 C
404 06-06-2020 09:35:00 12.7 C 81 % 9.53 C
405 06-06-2020 09:40:00 12.8 C 80 % 9.44 C
406 06-06-2020 09:45:00 13.1 C 79 % 9.54 C
407 06-06-2020 09:50:00 13.2 C 78 % 9.45 C
408 06-06-2020 09:55:00 13.3 C 78 % 9.55 C
409 06-06-2020 10:00:00 13.6 C 77 % 9.65 C
410 06-06-2020 10:05:00 13.7 C 76 % 9.55 C
411 06-06-2020 10:10:00 13.8 C 76 % 9.65 C
412 06-06-2020 10:15:00 13.9 C 75 % 9.55 C
413 06-06-2020 10:20:00 13.9 C 76 % 9.74 C
414 06-06-2020 10:25:00 13.7 C 80 % 10.32 C
415 06-06-2020 10:30:00 13.2 C 82 % 10.2 C
416 06-06-2020 10:35:00 12.9 C 84 % 10.26 C
417 06-06-2020 10:40:00 12.8 C 86 % 10.52 C
418 06-06-2020 10:45:00 12.8 C 86 % 10.52 C
419 06-06-2020 10:50:00 12.6 C 85 % 10.15 C
420 06-06-2020 10:55:00 12.6 C 87 % 10.5 C
421 06-06-2020 11:00:00 12.6 C 88 % 10.67 C
422 06-06-2020 11:05:00 12.7 C 88 % 10.77 C
423 06-06-2020 11:10:00 12.6 C 89 % 10.84 C
424 06-06-2020 11:15:00 12.7 C 90 % 11.1 C
425 06-06-2020 11:20:00 12.7 C 90 % 11.1 C
Sensor: Nr:Datum:Temp:Feuchte:Taupunkt:
Aussen-T/F 426 06-06-2020 11:25:00 12.7 C 91 % 11.27 C
427 06-06-2020 11:30:00 12.7 C 91 % 11.27 C
428 06-06-2020 11:35:00 12.8 C 91 % 11.37 C
429 06-06-2020 11:40:00 12.6 C 90 % 11 C
430 06-06-2020 11:45:00 12.4 C 90 % 10.81 C
431 06-06-2020 11:50:00 12.3 C 91 % 10.87 C
432 06-06-2020 11:55:00 12.4 C 92 % 11.14 C
433 06-06-2020 12:00:00 12.4 C 92 % 11.14 C
434 06-06-2020 12:05:00 12.4 C 92 % 11.14 C
435 06-06-2020 12:10:00 12.6 C 93 % 11.5 C
436 06-06-2020 12:15:00 12.7 C 93 % 11.6 C
437 06-06-2020 12:20:00 12.9 C 93 % 11.8 C
438 06-06-2020 12:25:00 13.1 C 93 % 11.99 C
439 06-06-2020 12:30:00 13.3 C 93 % 12.19 C
440 06-06-2020 12:35:00 13.4 C 92 % 12.13 C
441 06-06-2020 12:40:00 13.1 C 83 % 10.28 C
442 06-06-2020 12:45:00 12.6 C 84 % 9.97 C
443 06-06-2020 12:50:00 12.2 C 85 % 9.76 C
444 06-06-2020 12:55:00 12.1 C 87 % 10 C
445 06-06-2020 13:00:00 12.1 C 89 % 10.34 C
446 06-06-2020 13:05:00 12.1 C 89 % 10.34 C
447 06-06-2020 13:10:00 12.1 C 90 % 10.51 C
448 06-06-2020 13:15:00 12.2 C 90 % 10.61 C
449 06-06-2020 13:20:00 12.4 C 88 % 10.47 C
450 06-06-2020 13:25:00 12.6 C 89 % 10.84 C
Sensor: Nr:Datum:Temp:Feuchte:Taupunkt:
Aussen-T/F 451 06-06-2020 13:30:00 12.7 C 87 % 10.59 C
452 06-06-2020 13:35:00 12.7 C 86 % 10.42 C
453 06-06-2020 13:40:00 12.9 C 88 % 10.96 C
454 06-06-2020 13:45:00 13 C 86 % 10.72 C
455 06-06-2020 13:50:00 12.9 C 87 % 10.79 C
456 06-06-2020 13:55:00 13 C 88 % 11.06 C
457 06-06-2020 14:00:00 13.1 C 88 % 11.16 C
458 06-06-2020 14:05:00 13.2 C 87 % 11.09 C
459 06-06-2020 14:10:00 13.3 C 86 % 11.01 C
460 06-06-2020 14:15:00 13.4 C 85 % 10.93 C
461 06-06-2020 14:20:00 13.6 C 84 % 10.95 C
462 06-06-2020 14:25:00 13.8 C 83 % 10.97 C
463 06-06-2020 14:30:00 14 C 83 % 11.16 C
464 06-06-2020 14:35:00 14.3 C 83 % 11.45 C
465 06-06-2020 14:40:00 14.6 C 81 % 11.38 C
466 06-06-2020 14:45:00 14.8 C 78 % 11 C
467 06-06-2020 14:50:00 15.1 C 78 % 11.3 C
468 06-06-2020 14:55:00 15.4 C 77 % 11.39 C
469 06-06-2020 15:00:00 15.9 C 74 % 11.28 C
470 06-06-2020 15:05:00 16.2 C 77 % 12.17 C
471 06-06-2020 15:10:00 15.9 C 75 % 11.48 C
472 06-06-2020 15:15:00 15.4 C 76 % 11.19 C
473 06-06-2020 15:20:00 14.9 C 81 % 11.67 C
474 06-06-2020 15:25:00 14.7 C 84 % 12.03 C
475 06-06-2020 15:30:00 14.7 C 84 % 12.03 C
Sensor: Nr:Datum:Temp:Feuchte:Taupunkt:
Aussen-T/F 476 06-06-2020 15:35:00 14.6 C 82 % 11.56 C
477 06-06-2020 15:40:00 14.6 C 82 % 11.56 C
478 06-06-2020 15:45:00 14.7 C 82 % 11.66 C
479 06-06-2020 15:50:00 15.1 C 83 % 12.24 C
480 06-06-2020 15:55:00 15.7 C 83 % 12.82 C
481 06-06-2020 16:00:00 16.3 C 81 % 13.04 C
482 06-06-2020 16:05:00 16.9 C 74 % 12.24 C
483 06-06-2020 16:10:00 17.2 C 74 % 12.53 C
484 06-06-2020 16:15:00 17.2 C 68 % 11.25 C
485 06-06-2020 16:20:00 17.1 C 70 % 11.59 C
486 06-06-2020 16:25:00 17.2 C 72 % 12.11 C
487 06-06-2020 16:30:00 17.2 C 68 % 11.25 C
488 06-06-2020 16:35:00 17.1 C 70 % 11.59 C
489 06-06-2020 16:40:00 17.4 C 68 % 11.44 C
490 06-06-2020 16:45:00 17.6 C 68 % 11.63 C
491 06-06-2020 16:50:00 17.8 C 68 % 11.82 C
492 06-06-2020 16:55:00 17.7 C 65 % 11.04 C
493 06-06-2020 17:00:00 17.8 C 66 % 11.37 C
494 06-06-2020 17:05:00 17.8 C 64 % 10.9 C
495 06-06-2020 17:10:00 17.8 C 63 % 10.67 C
496 06-06-2020 17:15:00 17.4 C 64 % 10.53 C
497 06-06-2020 17:20:00 17.2 C 62 % 9.86 C
498 06-06-2020 17:25:00 16.9 C 61 % 9.34 C
499 06-06-2020 17:30:00 16.7 C 64 % 9.86 C
500 06-06-2020 17:35:00 16.6 C 62 % 9.3 C
Sensor: Nr:Datum:Temp:Feuchte:Taupunkt:
Aussen-T/F 501 06-06-2020 17:40:00 16.4 C 63 % 9.35 C
502 06-06-2020 17:45:00 16.3 C 66 % 9.94 C
503 06-06-2020 17:50:00 16.2 C 67 % 10.07 C
504 06-06-2020 17:55:00 16.1 C 64 % 9.29 C
505 06-06-2020 18:00:00 15.9 C 62 % 8.64 C
506 06-06-2020 18:05:00 15.8 C 61 % 8.3 C
507 06-06-2020 18:10:00 16.2 C 61 % 8.68 C
508 06-06-2020 18:15:00 16.9 C 61 % 9.34 C
509 06-06-2020 18:20:00 17.7 C 58 % 9.34 C
510 06-06-2020 18:25:00 18 C 53 % 8.29 C
511 06-06-2020 18:30:00 18.2 C 53 % 8.47 C
512 06-06-2020 18:35:00 18.4 C 54 % 8.93 C
513 06-06-2020 18:40:00 18.7 C 57 % 10.02 C
514 06-06-2020 18:45:00 18.8 C 54 % 9.3 C
515 06-06-2020 18:50:00 18.7 C 52 % 8.65 C
516 06-06-2020 18:55:00 18.4 C 52 % 8.38 C
517 06-06-2020 19:00:00 18.3 C 53 % 8.56 C
518 06-06-2020 19:05:00 18.6 C 51 % 8.27 C
519 06-06-2020 19:10:00 18.8 C 53 % 9.03 C
520 06-06-2020 19:15:00 18.9 C 51 % 8.55 C
521 06-06-2020 19:20:00 18.7 C 52 % 8.65 C
522 06-06-2020 19:25:00 18.4 C 54 % 8.93 C
523 06-06-2020 19:30:00 18.4 C 52 % 8.38 C
524 06-06-2020 19:35:00 18.4 C 52 % 8.38 C
525 06-06-2020 19:40:00 18.1 C 51 % 7.81 C
Sensor: Nr:Datum:Temp:Feuchte:Taupunkt:
Aussen-T/F 526 06-06-2020 19:45:00 17.8 C 53 % 8.1 C
527 06-06-2020 19:50:00 17.6 C 52 % 7.64 C
528 06-06-2020 19:55:00 17.5 C 56 % 8.63 C
529 06-06-2020 20:00:00 17.7 C 56 % 8.82 C
530 06-06-2020 20:05:00 17.9 C 55 % 8.74 C
531 06-06-2020 20:10:00 17.8 C 55 % 8.65 C
532 06-06-2020 20:15:00 17.8 C 57 % 9.18 C
533 06-06-2020 20:20:00 17.8 C 62 % 10.43 C
534 06-06-2020 20:25:00 17.7 C 57 % 9.08 C
535 06-06-2020 20:30:00 17.4 C 61 % 9.81 C
536 06-06-2020 20:35:00 17.2 C 59 % 9.13 C
537 06-06-2020 20:40:00 16.9 C 65 % 10.28 C
538 06-06-2020 20:45:00 16.5 C 64 % 9.67 C
539 06-06-2020 20:50:00 16.1 C 67 % 9.98 C
540 06-06-2020 20:55:00 15.7 C 70 % 10.25 C
541 06-06-2020 21:00:00 15.3 C 70 % 9.87 C
542 06-06-2020 21:05:00 14.8 C 72 % 9.81 C
543 06-06-2020 21:10:00 14.4 C 73 % 9.63 C
544 06-06-2020 21:15:00 14.1 C 73 % 9.34 C
545 06-06-2020 21:20:00 13.8 C 75 % 9.45 C
546 06-06-2020 21:25:00 13.6 C 74 % 9.06 C
547 06-06-2020 21:30:00 13.3 C 76 % 9.16 C
548 06-06-2020 21:35:00 13.1 C 76 % 8.97 C
549 06-06-2020 21:40:00 12.9 C 77 % 8.97 C
550 06-06-2020 21:45:00 12.7 C 78 % 8.97 C
Sensor: Nr:Datum:Temp:Feuchte:Taupunkt:
Aussen-T/F 551 06-06-2020 21:50:00 12.6 C 79 % 9.06 C
552 06-06-2020 21:55:00 12.4 C 79 % 8.86 C
553 06-06-2020 22:00:00 12.2 C 79 % 8.67 C
554 06-06-2020 22:05:00 12.2 C 80 % 8.86 C
555 06-06-2020 22:10:00 12.1 C 81 % 8.94 C
556 06-06-2020 22:15:00 11.9 C 82 % 8.93 C
557 06-06-2020 22:20:00 11.8 C 83 % 9.01 C
558 06-06-2020 22:25:00 11.8 C 83 % 9.01 C
559 06-06-2020 22:30:00 11.7 C 85 % 9.27 C
560 06-06-2020 22:35:00 11.6 C 85 % 9.17 C
561 06-06-2020 22:40:00 11.5 C 85 % 9.07 C
562 06-06-2020 22:45:00 11.4 C 85 % 8.97 C
563 06-06-2020 22:50:00 11.3 C 85 % 8.87 C
564 06-06-2020 22:55:00 11.2 C 85 % 8.77 C
565 06-06-2020 23:00:00 11.1 C 85 % 8.68 C
566 06-06-2020 23:05:00 11 C 86 % 8.75 C
567 06-06-2020 23:10:00 10.8 C 86 % 8.56 C
568 06-06-2020 23:15:00 10.7 C 85 % 8.28 C
569 06-06-2020 23:20:00 10.6 C 86 % 8.36 C
570 06-06-2020 23:25:00 10.6 C 87 % 8.53 C
571 06-06-2020 23:30:00 10.5 C 87 % 8.43 C
572 06-06-2020 23:35:00 10.5 C 87 % 8.43 C
573 06-06-2020 23:40:00 10.4 C 87 % 8.33 C
574 06-06-2020 23:45:00 10.3 C 87 % 8.23 C
575 06-06-2020 23:50:00 10.3 C 87 % 8.23 C
Sensor: Nr:Datum:Temp:Feuchte:Taupunkt:
Aussen-T/F 576 06-06-2020 23:55:00 10.3 C 87 % 8.23 C
577 07-06-2020 00:00:00 10.2 C 86 % 7.97 C
578 07-06-2020 00:05:00 10.2 C 86 % 7.97 C
579 07-06-2020 00:10:00 10.2 C 86 % 7.97 C
580 07-06-2020 00:15:00 10.2 C 86 % 7.97 C
581 07-06-2020 00:20:00 10.2 C 86 % 7.97 C
582 07-06-2020 00:25:00 10.2 C 86 % 7.97 C
583 07-06-2020 00:30:00 10.1 C 86 % 7.87 C
584 07-06-2020 00:35:00 10.1 C 86 % 7.87 C
585 07-06-2020 00:40:00 10.2 C 86 % 7.97 C
586 07-06-2020 00:45:00 10.2 C 87 % 8.14 C
587 07-06-2020 00:50:00 10.2 C 87 % 8.14 C
588 07-06-2020 00:55:00 10.2 C 87 % 8.14 C
589 07-06-2020 01:00:00 10.1 C 87 % 8.04 C
590 07-06-2020 01:05:00 10.1 C 87 % 8.04 C
591 07-06-2020 01:10:00 10.1 C 87 % 8.04 C
592 07-06-2020 01:15:00 10 C 87 % 7.94 C
593 07-06-2020 01:20:00 10 C 87 % 7.94 C
594 07-06-2020 01:25:00 9.9 C 87 % 7.84 C
595 07-06-2020 01:30:00 9.9 C 87 % 7.84 C
596 07-06-2020 01:35:00 10 C 87 % 7.94 C
597 07-06-2020 01:40:00 10 C 88 % 8.11 C
598 07-06-2020 01:45:00 10 C 88 % 8.11 C
599 07-06-2020 01:50:00 9.9 C 88 % 8.01 C
600 07-06-2020 01:55:00 9.9 C 87 % 7.84 C
Sensor: Nr:Datum:Temp:Feuchte:Taupunkt:
Aussen-T/F 601 07-06-2020 02:00:00 9.9 C 87 % 7.84 C
602 07-06-2020 02:05:00 9.9 C 87 % 7.84 C
603 07-06-2020 02:10:00 10 C 87 % 7.94 C
604 07-06-2020 02:15:00 10.1 C 87 % 8.04 C
605 07-06-2020 02:20:00 10.1 C 86 % 7.87 C
606 07-06-2020 02:25:00 10.1 C 86 % 7.87 C
607 07-06-2020 02:30:00 10.1 C 86 % 7.87 C
608 07-06-2020 02:35:00 10.1 C 86 % 7.87 C
609 07-06-2020 02:40:00 10.1 C 86 % 7.87 C
610 07-06-2020 02:45:00 10.1 C 86 % 7.87 C
611 07-06-2020 02:50:00 10.1 C 86 % 7.87 C
612 07-06-2020 02:55:00 10.1 C 86 % 7.87 C
613 07-06-2020 03:00:00 10.1 C 86 % 7.87 C
614 07-06-2020 03:05:00 10.1 C 86 % 7.87 C
615 07-06-2020 03:10:00 10 C 86 % 7.77 C
616 07-06-2020 03:15:00 9.9 C 86 % 7.67 C
617 07-06-2020 03:20:00 9.9 C 86 % 7.67 C
618 07-06-2020 03:25:00 9.8 C 86 % 7.57 C
619 07-06-2020 03:30:00 9.8 C 86 % 7.57 C
620 07-06-2020 03:35:00 9.7 C 86 % 7.47 C
621 07-06-2020 03:40:00 9.6 C 86 % 7.38 C
622 07-06-2020 03:45:00 9.5 C 85 % 7.11 C
623 07-06-2020 03:50:00 9.3 C 85 % 6.91 C
624 07-06-2020 03:55:00 9.2 C 86 % 6.98 C
625 07-06-2020 04:00:00 9 C 86 % 6.79 C
Sensor: Nr:Datum:Temp:Feuchte:Taupunkt:
Aussen-T/F 626 07-06-2020 04:05:00 8.8 C 87 % 6.76 C
627 07-06-2020 04:10:00 8.7 C 88 % 6.83 C
628 07-06-2020 04:15:00 8.6 C 88 % 6.73 C
629 07-06-2020 04:20:00 8.5 C 88 % 6.63 C
630 07-06-2020 04:25:00 8.4 C 89 % 6.7 C
631 07-06-2020 04:30:00 8.3 C 89 % 6.6 C
632 07-06-2020 04:35:00 8.2 C 89 % 6.5 C
633 07-06-2020 04:40:00 8.2 C 90 % 6.66 C
634 07-06-2020 04:45:00 8.2 C 90 % 6.66 C
635 07-06-2020 04:50:00 8.1 C 90 % 6.56 C
636 07-06-2020 04:55:00 8.1 C 91 % 6.72 C
637 07-06-2020 05:00:00 8.1 C 91 % 6.72 C
638 07-06-2020 05:05:00 8.1 C 91 % 6.72 C
639 07-06-2020 05:10:00 8.1 C 91 % 6.72 C
640 07-06-2020 05:15:00 8.2 C 91 % 6.82 C
641 07-06-2020 05:20:00 8.2 C 92 % 6.98 C
642 07-06-2020 05:25:00 8.2 C 92 % 6.98 C
643 07-06-2020 05:30:00 8.1 C 92 % 6.88 C
644 07-06-2020 05:35:00 8.1 C 92 % 6.88 C
645 07-06-2020 05:40:00 8.1 C 92 % 6.88 C
646 07-06-2020 05:45:00 8 C 92 % 6.78 C
647 07-06-2020 05:50:00 7.9 C 92 % 6.68 C
648 07-06-2020 05:55:00 7.9 C 92 % 6.68 C
649 07-06-2020 06:00:00 7.9 C 92 % 6.68 C
650 07-06-2020 06:05:00 7.9 C 92 % 6.68 C
Sensor: Nr:Datum:Temp:Feuchte:Taupunkt:
Aussen-T/F 651 07-06-2020 06:10:00 7.8 C 92 % 6.58 C
652 07-06-2020 06:15:00 7.8 C 92 % 6.58 C
653 07-06-2020 06:20:00 7.8 C 92 % 6.58 C
654 07-06-2020 06:25:00 7.7 C 92 % 6.48 C
655 07-06-2020 06:30:00 7.7 C 92 % 6.48 C
656 07-06-2020 06:35:00 7.6 C 92 % 6.39 C
657 07-06-2020 06:40:00 7.6 C 92 % 6.39 C
658 07-06-2020 06:45:00 7.6 C 92 % 6.39 C
659 07-06-2020 06:50:00 7.5 C 93 % 6.44 C
660 07-06-2020 06:55:00 7.6 C 93 % 6.54 C
661 07-06-2020 07:00:00 7.6 C 93 % 6.54 C
662 07-06-2020 07:05:00 7.6 C 93 % 6.54 C
663 07-06-2020 07:10:00 7.6 C 93 % 6.54 C
664 07-06-2020 07:15:00 7.6 C 93 % 6.54 C
665 07-06-2020 07:20:00 7.7 C 94 % 6.8 C
666 07-06-2020 07:25:00 7.8 C 94 % 6.9 C
667 07-06-2020 07:30:00 7.8 C 94 % 6.9 C
668 07-06-2020 07:35:00 7.9 C 94 % 7 C
669 07-06-2020 07:40:00 8 C 94 % 7.09 C
670 07-06-2020 07:45:00 8.1 C 94 % 7.19 C
671 07-06-2020 07:50:00 8.2 C 94 % 7.29 C
672 07-06-2020 07:55:00 8.3 C 94 % 7.39 C
673 07-06-2020 08:00:00 8.5 C 94 % 7.59 C
674 07-06-2020 08:05:00 8.6 C 94 % 7.69 C
675 07-06-2020 08:10:00 8.7 C 94 % 7.79 C
Sensor: Nr:Datum:Temp:Feuchte:Taupunkt:
Aussen-T/F 676 07-06-2020 08:15:00 8.8 C 94 % 7.89 C
677 07-06-2020 08:20:00 8.9 C 94 % 7.99 C
678 07-06-2020 08:25:00 9.3 C 92 % 8.07 C
679 07-06-2020 08:30:00 9.9 C 88 % 8.01 C
680 07-06-2020 08:35:00 10.6 C 84 % 8.01 C
681 07-06-2020 08:40:00 10.9 C 81 % 7.77 C
682 07-06-2020 08:45:00 11.4 C 79 % 7.89 C
683 07-06-2020 08:50:00 11.9 C 76 % 7.81 C
684 07-06-2020 08:55:00 12.3 C 75 % 8 C
685 07-06-2020 09:00:00 12.7 C 74 % 8.19 C
686 07-06-2020 09:05:00 12.9 C 73 % 8.18 C
687 07-06-2020 09:10:00 13 C 71 % 7.87 C
688 07-06-2020 09:15:00 13.2 C 72 % 8.27 C
689 07-06-2020 09:20:00 13.4 C 71 % 8.26 C
690 07-06-2020 09:25:00 13.8 C 72 % 8.85 C
691 07-06-2020 09:30:00 14.1 C 70 % 8.72 C
692 07-06-2020 09:35:00 14.3 C 69 % 8.7 C
693 07-06-2020 09:40:00 14.4 C 68 % 8.58 C
694 07-06-2020 09:45:00 14.4 C 70 % 9 C
695 07-06-2020 09:50:00 14.4 C 67 % 8.36 C
696 07-06-2020 09:55:00 14.6 C 69 % 8.98 C
697 07-06-2020 10:00:00 14.7 C 67 % 8.64 C
698 07-06-2020 10:05:00 14.7 C 69 % 9.08 C
699 07-06-2020 10:10:00 14.7 C 68 % 8.86 C
700 07-06-2020 10:15:00 14.8 C 67 % 8.74 C
Sensor: Nr:Datum:Temp:Feuchte:Taupunkt:
Aussen-T/F 701 07-06-2020 10:20:00 14.8 C 68 % 8.96 C
702 07-06-2020 10:25:00 14.9 C 69 % 9.27 C
703 07-06-2020 10:30:00 14.9 C 67 % 8.83 C
704 07-06-2020 10:35:00 14.9 C 68 % 9.05 C
705 07-06-2020 10:40:00 14.8 C 68 % 8.96 C
706 07-06-2020 10:45:00 14.8 C 68 % 8.96 C
707 07-06-2020 10:50:00 14.8 C 69 % 9.17 C
708 07-06-2020 10:55:00 14.9 C 69 % 9.27 C
709 07-06-2020 11:00:00 14.9 C 69 % 9.27 C
710 07-06-2020 11:05:00 15 C 69 % 9.36 C
711 07-06-2020 11:10:00 15.2 C 68 % 9.34 C
712 07-06-2020 11:15:00 15.3 C 67 % 9.21 C
713 07-06-2020 11:20:00 15.3 C 68 % 9.43 C
714 07-06-2020 11:25:00 15.2 C 69 % 9.56 C
715 07-06-2020 11:30:00 15.2 C 70 % 9.77 C
716 07-06-2020 11:35:00 15.1 C 71 % 9.89 C
717 07-06-2020 11:40:00 15.1 C 69 % 9.46 C
718 07-06-2020 11:45:00 15 C 69 % 9.36 C
719 07-06-2020 11:50:00 14.9 C 69 % 9.27 C
720 07-06-2020 11:55:00 14.9 C 68 % 9.05 C
721 07-06-2020 12:00:00 15 C 69 % 9.36 C
722 07-06-2020 12:05:00 15.1 C 69 % 9.46 C
723 07-06-2020 12:10:00 15.3 C 69 % 9.65 C
724 07-06-2020 12:15:00 15.5 C 67 % 9.41 C
725 07-06-2020 12:20:00 15.8 C 68 % 9.91 C
Sensor: Nr:Datum:Temp:Feuchte:Taupunkt:
Aussen-T/F 726 07-06-2020 12:25:00 15.9 C 67 % 9.79 C
727 07-06-2020 12:30:00 16.1 C 67 % 9.98 C
728 07-06-2020 12:35:00 16.3 C 67 % 10.17 C
729 07-06-2020 12:40:00 16.4 C 64 % 9.58 C
730 07-06-2020 12:45:00 16.4 C 64 % 9.58 C
731 07-06-2020 12:50:00 16.5 C 63 % 9.44 C
732 07-06-2020 12:55:00 16.4 C 64 % 9.58 C
733 07-06-2020 13:00:00 16.4 C 63 % 9.35 C
734 07-06-2020 13:05:00 16.4 C 62 % 9.11 C
735 07-06-2020 13:10:00 16.4 C 62 % 9.11 C
736 07-06-2020 13:15:00 16.3 C 64 % 9.48 C
737 07-06-2020 13:20:00 16.2 C 65 % 9.62 C
738 07-06-2020 13:25:00 16.2 C 65 % 9.62 C
739 07-06-2020 13:30:00 16.3 C 65 % 9.71 C
740 07-06-2020 13:35:00 16.3 C 63 % 9.25 C
741 07-06-2020 13:40:00 16.3 C 64 % 9.48 C
742 07-06-2020 13:45:00 16.6 C 65 % 10 C
743 07-06-2020 13:50:00 16.7 C 64 % 9.86 C
744 07-06-2020 13:55:00 16.8 C 63 % 9.72 C
745 07-06-2020 14:00:00 16.9 C 62 % 9.58 C
746 07-06-2020 14:05:00 16.9 C 64 % 10.05 C
747 07-06-2020 14:10:00 17 C 65 % 10.38 C
748 07-06-2020 14:15:00 17.3 C 63 % 10.2 C
749 07-06-2020 14:20:00 17.4 C 63 % 10.29 C
750 07-06-2020 14:25:00 17.4 C 60 % 9.56 C
Sensor: Nr:Datum:Temp:Feuchte:Taupunkt:
Aussen-T/F 751 07-06-2020 14:30:00 17.2 C 60 % 9.37 C
752 07-06-2020 14:35:00 16.9 C 64 % 10.05 C
753 07-06-2020 14:40:00 16.7 C 62 % 9.39 C
754 07-06-2020 14:45:00 16.7 C 64 % 9.86 C
755 07-06-2020 14:50:00 17 C 64 % 10.15 C
756 07-06-2020 14:55:00 17.4 C 63 % 10.29 C
757 07-06-2020 15:00:00 17.9 C 61 % 10.28 C
758 07-06-2020 15:05:00 18.3 C 60 % 10.41 C
759 07-06-2020 15:10:00 18.4 C 61 % 10.75 C
760 07-06-2020 15:15:00 18.3 C 60 % 10.41 C
761 07-06-2020 15:20:00 18.2 C 62 % 10.81 C
762 07-06-2020 15:25:00 18.2 C 61 % 10.56 C
763 07-06-2020 15:30:00 18.4 C 60 % 10.5 C
764 07-06-2020 15:35:00 18.8 C 59 % 10.63 C
765 07-06-2020 15:40:00 19 C 58 % 10.56 C
766 07-06-2020 15:45:00 19.3 C 54 % 9.77 C
767 07-06-2020 15:50:00 18.8 C 55 % 9.58 C
768 07-06-2020 15:55:00 18.2 C 58 % 9.81 C
769 07-06-2020 16:00:00 17.7 C 60 % 9.84 C
770 07-06-2020 16:05:00 17.4 C 62 % 10.05 C
771 07-06-2020 16:10:00 17.4 C 62 % 10.05 C
772 07-06-2020 16:15:00 17.4 C 61 % 9.81 C
773 07-06-2020 16:20:00 17.6 C 60 % 9.75 C
774 07-06-2020 16:25:00 17.6 C 61 % 10 C
775 07-06-2020 16:30:00 17.7 C 57 % 9.08 C
Sensor: Nr:Datum:Temp:Feuchte:Taupunkt:
Aussen-T/F 776 07-06-2020 16:35:00 17.8 C 59 % 9.69 C
777 07-06-2020 16:40:00 17.9 C 58 % 9.53 C
778 07-06-2020 16:45:00 18.2 C 60 % 10.31 C
779 07-06-2020 16:50:00 18.8 C 57 % 10.11 C
780 07-06-2020 16:55:00 19.2 C 54 % 9.67 C
781 07-06-2020 17:00:00 19.4 C 54 % 9.86 C
782 07-06-2020 17:05:00 19.3 C 53 % 9.49 C
783 07-06-2020 17:10:00 19.5 C 50 % 8.81 C
784 07-06-2020 17:15:00 19.7 C 48 % 8.39 C
785 07-06-2020 17:20:00 19.6 C 46 % 7.67 C
786 07-06-2020 17:25:00 19.6 C 48 % 8.3 C
787 07-06-2020 17:30:00 19.6 C 49 % 8.6 C
788 07-06-2020 17:35:00 19.8 C 46 % 7.86 C
789 07-06-2020 17:40:00 20.1 C 46 % 8.13 C
790 07-06-2020 17:45:00 20.1 C 45 % 7.81 C
791 07-06-2020 17:50:00 19.8 C 45 % 7.53 C
792 07-06-2020 17:55:00 19.6 C 45 % 7.35 C
793 07-06-2020 18:00:00 19.7 C 48 % 8.39 C
794 07-06-2020 18:05:00 19.8 C 47 % 8.17 C
795 07-06-2020 18:10:00 19.7 C 48 % 8.39 C
796 07-06-2020 18:15:00 19.4 C 48 % 8.12 C
797 07-06-2020 18:20:00 19.1 C 48 % 7.84 C
798 07-06-2020 18:25:00 18.8 C 48 % 7.57 C
799 07-06-2020 18:30:00 18.6 C 49 % 7.69 C
800 07-06-2020 18:35:00 18.4 C 49 % 7.5 C
Sensor: Nr:Datum:Temp:Feuchte:Taupunkt:
Aussen-T/F 801 07-06-2020 18:40:00 18.4 C 52 % 8.38 C
802 07-06-2020 18:45:00 18.4 C 52 % 8.38 C
803 07-06-2020 18:50:00 18.4 C 53 % 8.66 C
804 07-06-2020 18:55:00 18.4 C 54 % 8.93 C
805 07-06-2020 19:00:00 18.6 C 52 % 8.56 C
806 07-06-2020 19:05:00 18.9 C 49 % 7.96 C
807 07-06-2020 19:10:00 19.2 C 52 % 9.11 C
808 07-06-2020 19:15:00 19.1 C 49 % 8.15 C
809 07-06-2020 19:20:00 18.8 C 55 % 9.58 C
810 07-06-2020 19:25:00 18.8 C 62 % 11.37 C
811 07-06-2020 19:30:00 18.7 C 64 % 11.76 C
812 07-06-2020 19:35:00 18.5 C 64 % 11.57 C
813 07-06-2020 19:40:00 18.4 C 62 % 10.99 C
814 07-06-2020 19:45:00 18.3 C 55 % 9.11 C
815 07-06-2020 19:50:00 18.3 C 63 % 11.14 C
816 07-06-2020 19:55:00 18.2 C 65 % 11.52 C
817 07-06-2020 20:00:00 18 C 66 % 11.56 C
818 07-06-2020 20:05:00 17.7 C 65 % 11.04 C
819 07-06-2020 20:10:00 17.2 C 66 % 10.8 C
820 07-06-2020 20:15:00 16.8 C 67 % 10.64 C
821 07-06-2020 20:20:00 16.4 C 67 % 10.26 C
822 07-06-2020 20:25:00 16.1 C 67 % 9.98 C
823 07-06-2020 20:30:00 15.8 C 66 % 9.47 C
824 07-06-2020 20:35:00 15.6 C 66 % 9.28 C
825 07-06-2020 20:40:00 15.4 C 68 % 9.53 C
Sensor: Nr:Datum:Temp:Feuchte:Taupunkt:
Aussen-T/F 826 07-06-2020 20:45:00 15.3 C 69 % 9.65 C
827 07-06-2020 20:50:00 15.3 C 70 % 9.87 C
828 07-06-2020 20:55:00 15.1 C 70 % 9.67 C
829 07-06-2020 21:00:00 14.8 C 71 % 9.6 C
830 07-06-2020 21:05:00 14.6 C 72 % 9.61 C
831 07-06-2020 21:10:00 14.4 C 73 % 9.63 C
832 07-06-2020 21:15:00 14.2 C 75 % 9.84 C
833 07-06-2020 21:20:00 14 C 75 % 9.64 C
834 07-06-2020 21:25:00 13.7 C 75 % 9.35 C
835 07-06-2020 21:30:00 13.6 C 75 % 9.26 C
836 07-06-2020 21:35:00 13.4 C 76 % 9.26 C
837 07-06-2020 21:40:00 13.3 C 77 % 9.36 C
838 07-06-2020 21:45:00 13.1 C 78 % 9.36 C
839 07-06-2020 21:50:00 12.9 C 79 % 9.35 C
840 07-06-2020 21:55:00 12.8 C 79 % 9.25 C
841 07-06-2020 22:00:00 12.6 C 79 % 9.06 C
842 07-06-2020 22:05:00 12.4 C 81 % 9.23 C
843 07-06-2020 22:10:00 12.2 C 82 % 9.22 C
844 07-06-2020 22:15:00 12 C 83 % 9.21 C
845 07-06-2020 22:20:00 11.8 C 83 % 9.01 C
846 07-06-2020 22:25:00 11.7 C 83 % 8.91 C
847 07-06-2020 22:30:00 11.6 C 83 % 8.81 C
848 07-06-2020 22:35:00 11.4 C 84 % 8.8 C
849 07-06-2020 22:40:00 11.3 C 84 % 8.7 C
850 07-06-2020 22:45:00 11.2 C 84 % 8.6 C
Sensor: Nr:Datum:Temp:Feuchte:Taupunkt:
Aussen-T/F 851 07-06-2020 22:50:00 11 C 84 % 8.4 C
852 07-06-2020 22:55:00 10.9 C 85 % 8.48 C
853 07-06-2020 23:00:00 10.9 C 85 % 8.48 C
854 07-06-2020 23:05:00 10.9 C 85 % 8.48 C
855 07-06-2020 23:10:00 10.9 C 85 % 8.48 C
856 07-06-2020 23:15:00 11.1 C 85 % 8.68 C
857 07-06-2020 23:20:00 11.2 C 85 % 8.77 C
858 07-06-2020 23:25:00 11.3 C 85 % 8.87 C
859 07-06-2020 23:30:00 11.3 C 85 % 8.87 C
860 07-06-2020 23:35:00 11.4 C 85 % 8.97 C
861 07-06-2020 23:40:00 11.5 C 85 % 9.07 C
862 07-06-2020 23:45:00 11.5 C 85 % 9.07 C
863 07-06-2020 23:50:00 11.5 C 85 % 9.07 C
864 07-06-2020 23:55:00 11.5 C 85 % 9.07 C
865 08-06-2020 00:00:00 11.4 C 85 % 8.97 C
866 08-06-2020 00:05:00 11.4 C 86 % 9.14 C
867 08-06-2020 00:10:00 11.4 C 86 % 9.14 C
868 08-06-2020 00:15:00 11.4 C 85 % 8.97 C
869 08-06-2020 00:20:00 11.4 C 85 % 8.97 C
870 08-06-2020 00:25:00 11.4 C 85 % 8.97 C
871 08-06-2020 00:30:00 11.4 C 85 % 8.97 C
872 08-06-2020 00:35:00 11.4 C 85 % 8.97 C
873 08-06-2020 00:40:00 11.5 C 85 % 9.07 C
874 08-06-2020 00:45:00 11.5 C 85 % 9.07 C
875 08-06-2020 00:50:00 11.5 C 85 % 9.07 C
Sensor: Nr:Datum:Temp:Feuchte:Taupunkt:
Aussen-T/F 876 08-06-2020 00:55:00 11.6 C 86 % 9.34 C
877 08-06-2020 01:00:00 11.6 C 86 % 9.34 C
878 08-06-2020 01:05:00 11.7 C 86 % 9.44 C
879 08-06-2020 01:10:00 11.7 C 87 % 9.61 C
880 08-06-2020 01:15:00 11.7 C 87 % 9.61 C
881 08-06-2020 01:20:00 11.7 C 88 % 9.78 C
882 08-06-2020 01:25:00 11.7 C 88 % 9.78 C
883 08-06-2020 01:30:00 11.6 C 88 % 9.68 C
884 08-06-2020 01:35:00 11.5 C 89 % 9.75 C
885 08-06-2020 01:40:00 11.3 C 89 % 9.55 C
886 08-06-2020 01:45:00 11.2 C 89 % 9.46 C
887 08-06-2020 01:50:00 11.1 C 89 % 9.36 C
888 08-06-2020 01:55:00 10.9 C 88 % 8.99 C
889 08-06-2020 02:00:00 10.7 C 88 % 8.8 C
890 08-06-2020 02:05:00 10.5 C 89 % 8.77 C
891 08-06-2020 02:10:00 10.3 C 89 % 8.57 C
892 08-06-2020 02:15:00 10.2 C 89 % 8.47 C
893 08-06-2020 02:20:00 10.1 C 90 % 8.54 C
894 08-06-2020 02:25:00 9.9 C 90 % 8.34 C
895 08-06-2020 02:30:00 9.8 C 90 % 8.24 C
896 08-06-2020 02:35:00 9.7 C 90 % 8.14 C
897 08-06-2020 02:40:00 9.6 C 90 % 8.04 C
898 08-06-2020 02:45:00 9.5 C 91 % 8.11 C
899 08-06-2020 02:50:00 9.4 C 91 % 8.01 C
900 08-06-2020 02:55:00 9.3 C 91 % 7.91 C
Sensor: Nr:Datum:Temp:Feuchte:Taupunkt:
Aussen-T/F 901 08-06-2020 03:00:00 9.3 C 91 % 7.91 C
902 08-06-2020 03:05:00 9.2 C 91 % 7.81 C
903 08-06-2020 03:10:00 9.2 C 91 % 7.81 C
904 08-06-2020 03:15:00 9.1 C 92 % 7.87 C
905 08-06-2020 03:20:00 9.1 C 92 % 7.87 C
906 08-06-2020 03:25:00 8.9 C 92 % 7.67 C
907 08-06-2020 03:30:00 8.8 C 92 % 7.57 C
908 08-06-2020 03:35:00 8.8 C 92 % 7.57 C
909 08-06-2020 03:40:00 8.7 C 92 % 7.47 C
910 08-06-2020 03:45:00 8.7 C 92 % 7.47 C
911 08-06-2020 03:50:00 8.7 C 93 % 7.63 C
912 08-06-2020 03:55:00 8.7 C 93 % 7.63 C
913 08-06-2020 04:00:00 8.8 C 93 % 7.73 C
914 08-06-2020 04:05:00 8.8 C 93 % 7.73 C
915 08-06-2020 04:10:00 8.9 C 93 % 7.83 C
916 08-06-2020 04:15:00 8.9 C 93 % 7.83 C
917 08-06-2020 04:20:00 8.9 C 94 % 7.99 C
918 08-06-2020 04:25:00 8.9 C 94 % 7.99 C
919 08-06-2020 04:30:00 8.9 C 94 % 7.99 C
920 08-06-2020 04:35:00 8.9 C 94 % 7.99 C
921 08-06-2020 04:40:00 8.9 C 93 % 7.83 C
922 08-06-2020 04:45:00 8.8 C 93 % 7.73 C
923 08-06-2020 04:50:00 8.8 C 94 % 7.89 C
924 08-06-2020 04:55:00 8.7 C 94 % 7.79 C
925 08-06-2020 05:00:00 8.7 C 94 % 7.79 C
Sensor: Nr:Datum:Temp:Feuchte:Taupunkt:
Aussen-T/F 926 08-06-2020 05:05:00 8.6 C 93 % 7.53 C
927 08-06-2020 05:10:00 8.6 C 93 % 7.53 C
928 08-06-2020 05:15:00 8.5 C 93 % 7.43 C
929 08-06-2020 05:20:00 8.3 C 93 % 7.24 C
930 08-06-2020 05:25:00 8.2 C 93 % 7.14 C
931 08-06-2020 05:30:00 8.1 C 93 % 7.04 C
932 08-06-2020 05:35:00 8 C 94 % 7.09 C
933 08-06-2020 05:40:00 7.9 C 93 % 6.84 C
934 08-06-2020 05:45:00 7.9 C 94 % 7 C
935 08-06-2020 05:50:00 7.9 C 94 % 7 C
936 08-06-2020 05:55:00 7.9 C 94 % 7 C
937 08-06-2020 06:00:00 7.9 C 94 % 7 C
938 08-06-2020 06:05:00 8 C 94 % 7.09 C
939 08-06-2020 06:10:00 8 C 94 % 7.09 C
940 08-06-2020 06:15:00 8.1 C 94 % 7.19 C
941 08-06-2020 06:20:00 8.1 C 95 % 7.35 C
942 08-06-2020 06:25:00 8.2 C 95 % 7.45 C
943 08-06-2020 06:30:00 8.3 C 95 % 7.55 C
944 08-06-2020 06:35:00 8.5 C 95 % 7.75 C
945 08-06-2020 06:40:00 8.7 C 95 % 7.94 C
946 08-06-2020 06:45:00 8.8 C 95 % 8.04 C
947 08-06-2020 06:50:00 8.9 C 95 % 8.14 C
948 08-06-2020 06:55:00 9 C 95 % 8.24 C
949 08-06-2020 07:00:00 9.1 C 95 % 8.34 C
950 08-06-2020 07:05:00 9.2 C 95 % 8.44 C
Sensor: Nr:Datum:Temp:Feuchte:Taupunkt:
Aussen-T/F 951 08-06-2020 07:10:00 9.4 C 95 % 8.64 C
952 08-06-2020 07:15:00 9.4 C 94 % 8.48 C
953 08-06-2020 07:20:00 9.6 C 94 % 8.68 C
954 08-06-2020 07:25:00 9.7 C 94 % 8.78 C
955 08-06-2020 07:30:00 9.8 C 94 % 8.88 C
956 08-06-2020 07:35:00 9.9 C 93 % 8.82 C
957 08-06-2020 07:40:00 10 C 93 % 8.92 C
958 08-06-2020 07:45:00 10.2 C 93 % 9.12 C
959 08-06-2020 07:50:00 10.3 C 92 % 9.06 C
960 08-06-2020 07:55:00 10.4 C 92 % 9.16 C
961 08-06-2020 08:00:00 10.6 C 91 % 9.19 C
962 08-06-2020 08:05:00 10.7 C 91 % 9.29 C
963 08-06-2020 08:10:00 10.9 C 91 % 9.49 C
964 08-06-2020 08:15:00 11.1 C 90 % 9.52 C
965 08-06-2020 08:20:00 11.3 C 90 % 9.72 C
966 08-06-2020 08:25:00 11.4 C 89 % 9.65 C
967 08-06-2020 08:30:00 11.6 C 88 % 9.68 C
968 08-06-2020 08:35:00 11.6 C 88 % 9.68 C
969 08-06-2020 08:40:00 11.7 C 87 % 9.61 C
970 08-06-2020 08:45:00 11.8 C 87 % 9.71 C
971 08-06-2020 08:50:00 12.1 C 87 % 10 C
972 08-06-2020 08:55:00 12.3 C 86 % 10.03 C
973 08-06-2020 09:00:00 12.5 C 86 % 10.22 C
974 08-06-2020 09:05:00 12.7 C 85 % 10.25 C
975 08-06-2020 09:10:00 12.8 C 84 % 10.17 C
Sensor: Nr:Datum:Temp:Feuchte:Taupunkt:
Aussen-T/F 976 08-06-2020 09:15:00 13 C 84 % 10.36 C
977 08-06-2020 09:20:00 13.2 C 84 % 10.56 C
978 08-06-2020 09:25:00 13.4 C 83 % 10.57 C
979 08-06-2020 09:30:00 13.6 C 82 % 10.59 C
980 08-06-2020 09:35:00 13.7 C 82 % 10.69 C
981 08-06-2020 09:40:00 13.8 C 82 % 10.78 C
982 08-06-2020 09:45:00 13.9 C 82 % 10.88 C
983 08-06-2020 09:50:00 14.1 C 80 % 10.71 C
984 08-06-2020 09:55:00 14.2 C 80 % 10.8 C
985 08-06-2020 10:00:00 14.3 C 81 % 11.09 C
986 08-06-2020 10:05:00 14.5 C 80 % 11.09 C
987 08-06-2020 10:10:00 14.6 C 79 % 11 C
988 08-06-2020 10:15:00 14.8 C 78 % 11 C
989 08-06-2020 10:20:00 15.1 C 79 % 11.49 C
990 08-06-2020 10:25:00 15.5 C 77 % 11.49 C
991 08-06-2020 10:30:00 15.8 C 75 % 11.38 C
992 08-06-2020 10:35:00 16.1 C 73 % 11.26 C
993 08-06-2020 10:40:00 16.2 C 71 % 10.94 C
994 08-06-2020 10:45:00 16.3 C 70 % 10.82 C
995 08-06-2020 10:50:00 16.4 C 70 % 10.92 C
996 08-06-2020 10:55:00 16.4 C 70 % 10.92 C
997 08-06-2020 11:00:00 16.6 C 69 % 10.89 C
998 08-06-2020 11:05:00 16.8 C 69 % 11.09 C
999 08-06-2020 11:10:00 16.9 C 69 % 11.18 C
1000 08-06-2020 11:15:00 17.1 C 67 % 10.93 C
Sensor: Nr:Datum:Temp:Feuchte:Taupunkt:
Aussen-T/F 1001 08-06-2020 11:20:00 17.2 C 67 % 11.02 C
1002 08-06-2020 11:25:00 17.3 C 67 % 11.12 C
1003 08-06-2020 11:30:00 17.3 C 67 % 11.12 C
1004 08-06-2020 11:35:00 17.3 C 66 % 10.89 C
1005 08-06-2020 11:40:00 17.3 C 66 % 10.89 C
1006 08-06-2020 11:45:00 17.5 C 66 % 11.08 C
1007 08-06-2020 11:50:00 17.5 C 65 % 10.85 C
1008 08-06-2020 11:55:00 17.4 C 65 % 10.76 C
1009 08-06-2020 12:00:00 17.4 C 65 % 10.76 C
1010 08-06-2020 12:05:00 17.6 C 64 % 10.72 C
1011 08-06-2020 12:10:00 17.9 C 62 % 10.52 C
1012 08-06-2020 12:15:00 17.9 C 61 % 10.28 C
1013 08-06-2020 12:20:00 18.1 C 62 % 10.71 C
1014 08-06-2020 12:25:00 18.3 C 58 % 9.9 C
1015 08-06-2020 12:30:00 18.4 C 57 % 9.74 C
1016 08-06-2020 12:35:00 18.6 C 58 % 10.18 C
1017 08-06-2020 12:40:00 18.8 C 57 % 10.11 C
1018 08-06-2020 12:45:00 19.2 C 57 % 10.48 C
1019 08-06-2020 12:50:00 19.4 C 55 % 10.13 C
1020 08-06-2020 12:55:00 19.4 C 55 % 10.13 C
1021 08-06-2020 13:00:00 19.1 C 56 % 10.12 C
1022 08-06-2020 13:05:00 19.1 C 57 % 10.39 C
1023 08-06-2020 13:10:00 19 C 55 % 9.76 C
1024 08-06-2020 13:15:00 18.9 C 54 % 9.4 C
1025 08-06-2020 13:20:00 18.9 C 53 % 9.12 C
Sensor: Nr:Datum:Temp:Feuchte:Taupunkt:
Aussen-T/F 1026 08-06-2020 13:25:00 19.1 C 55 % 9.86 C
1027 08-06-2020 13:30:00 19.3 C 54 % 9.77 C
1028 08-06-2020 13:35:00 19.6 C 53 % 9.77 C
1029 08-06-2020 13:40:00 19.6 C 51 % 9.2 C
1030 08-06-2020 13:45:00 19.6 C 52 % 9.48 C
1031 08-06-2020 13:50:00 19.7 C 52 % 9.58 C
1032 08-06-2020 13:55:00 19.8 C 50 % 9.09 C
1033 08-06-2020 14:00:00 19.9 C 49 % 8.88 C
1034 08-06-2020 14:05:00 20 C 47 % 8.35 C
1035 08-06-2020 14:10:00 20.2 C 46 % 8.22 C
1036 08-06-2020 14:15:00 20.2 C 48 % 8.85 C
1037 08-06-2020 14:20:00 20.3 C 47 % 8.63 C
1038 08-06-2020 14:25:00 20.4 C 47 % 8.72 C
1039 08-06-2020 14:30:00 20.4 C 47 % 8.72 C
1040 08-06-2020 14:35:00 20.7 C 45 % 8.35 C
1041 08-06-2020 14:40:00 20.8 C 41 % 7.08 C
1042 08-06-2020 14:45:00 20.8 C 43 % 7.77 C
1043 08-06-2020 14:50:00 20.8 C 45 % 8.44 C
1044 08-06-2020 14:55:00 20.8 C 46 % 8.77 C
1045 08-06-2020 15:00:00 20.9 C 41 % 7.17 C
1046 08-06-2020 15:05:00 20.8 C 46 % 8.77 C
1047 08-06-2020 15:10:00 20.8 C 47 % 9.08 C
1048 08-06-2020 15:15:00 20.9 C 47 % 9.17 C
1049 08-06-2020 15:20:00 20.8 C 48 % 9.4 C
1050 08-06-2020 15:25:00 20.4 C 49 % 9.34 C
Sensor: Nr:Datum:Temp:Feuchte:Taupunkt:
Aussen-T/F 1051 08-06-2020 15:30:00 20.2 C 50 % 9.45 C
1052 08-06-2020 15:35:00 19.9 C 49 % 8.88 C
1053 08-06-2020 15:40:00 19.7 C 50 % 8.99 C
1054 08-06-2020 15:45:00 19.6 C 50 % 8.9 C
1055 08-06-2020 15:50:00 19.5 C 50 % 8.81 C
1056 08-06-2020 15:55:00 19.4 C 51 % 9.01 C
1057 08-06-2020 16:00:00 19.3 C 52 % 9.21 C
1058 08-06-2020 16:05:00 19.3 C 53 % 9.49 C
1059 08-06-2020 16:10:00 19.3 C 55 % 10.04 C
1060 08-06-2020 16:15:00 19.3 C 55 % 10.04 C
1061 08-06-2020 16:20:00 19.2 C 55 % 9.95 C
1062 08-06-2020 16:25:00 19.2 C 55 % 9.95 C
1063 08-06-2020 16:30:00 19.3 C 54 % 9.77 C
1064 08-06-2020 16:35:00 19.3 C 54 % 9.77 C
1065 08-06-2020 16:40:00 19.5 C 53 % 9.67 C
1066 08-06-2020 16:45:00 19.7 C 51 % 9.29 C
1067 08-06-2020 16:50:00 19.9 C 51 % 9.47 C
1068 08-06-2020 16:55:00 20.4 C 51 % 9.93 C
1069 08-06-2020 17:00:00 20.7 C 48 % 9.3 C
1070 08-06-2020 17:05:00 20.6 C 51 % 10.12 C
1071 08-06-2020 17:10:00 20.6 C 50 % 9.82 C
1072 08-06-2020 17:15:00 20.7 C 51 % 10.21 C
1073 08-06-2020 17:20:00 20.7 C 52 % 10.5 C
1074 08-06-2020 17:25:00 20.8 C 49 % 9.7 C
1075 08-06-2020 17:30:00 20.7 C 49 % 9.61 C
Sensor: Nr:Datum:Temp:Feuchte:Taupunkt:
Aussen-T/F 1076 08-06-2020 17:35:00 20.6 C 53 % 10.69 C
1077 08-06-2020 17:40:00 20.7 C 55 % 11.34 C
1078 08-06-2020 17:45:00 20.6 C 51 % 10.12 C
1079 08-06-2020 17:50:00 20.4 C 50 % 9.64 C
1080 08-06-2020 17:55:00 20.2 C 49 % 9.15 C
1081 08-06-2020 18:00:00 20.2 C 57 % 11.42 C
1082 08-06-2020 18:05:00 20.3 C 61 % 12.54 C
1083 08-06-2020 18:10:00 20.2 C 54 % 10.6 C
1084 08-06-2020 18:15:00 20.3 C 52 % 10.13 C
1085 08-06-2020 18:20:00 20.6 C 51 % 10.12 C
1086 08-06-2020 18:25:00 20.9 C 50 % 10.1 C
1087 08-06-2020 18:30:00 21 C 50 % 10.19 C
1088 08-06-2020 18:35:00 21 C 48 % 9.58 C
1089 08-06-2020 18:40:00 21.1 C 48 % 9.67 C
1090 08-06-2020 18:45:00 21.1 C 49 % 9.98 C
1091 08-06-2020 18:50:00 21.2 C 50 % 10.37 C
1092 08-06-2020 18:55:00 20.8 C 52 % 10.59 C
1093 08-06-2020 19:00:00 20.4 C 52 % 10.22 C
1094 08-06-2020 19:05:00 20.3 C 52 % 10.13 C
1095 08-06-2020 19:10:00 20.2 C 56 % 11.15 C
1096 08-06-2020 19:15:00 20.2 C 54 % 10.6 C
1097 08-06-2020 19:20:00 20.1 C 53 % 10.23 C
1098 08-06-2020 19:25:00 19.9 C 53 % 10.04 C
1099 08-06-2020 19:30:00 19.8 C 53 % 9.95 C
1100 08-06-2020 19:35:00 19.7 C 58 % 11.21 C
Sensor: Nr:Datum:Temp:Feuchte:Taupunkt:
Aussen-T/F 1101 08-06-2020 19:40:00 19.4 C 53 % 9.58 C
1102 08-06-2020 19:45:00 19.3 C 57 % 10.58 C
1103 08-06-2020 19:50:00 19.2 C 55 % 9.95 C
1104 08-06-2020 19:55:00 19.2 C 55 % 9.95 C
1105 08-06-2020 20:00:00 19.2 C 55 % 9.95 C
1106 08-06-2020 20:05:00 19.2 C 56 % 10.22 C
1107 08-06-2020 20:10:00 19.1 C 56 % 10.12 C
1108 08-06-2020 20:15:00 18.9 C 56 % 9.94 C
1109 08-06-2020 20:20:00 18.8 C 59 % 10.63 C
1110 08-06-2020 20:25:00 18.7 C 61 % 11.03 C
1111 08-06-2020 20:30:00 18.5 C 59 % 10.34 C
1112 08-06-2020 20:35:00 18.3 C 59 % 10.16 C
1113 08-06-2020 20:40:00 18.2 C 60 % 10.31 C
1114 08-06-2020 20:45:00 18.1 C 64 % 11.19 C
1115 08-06-2020 20:50:00 17.8 C 66 % 11.37 C
1116 08-06-2020 20:55:00 17.6 C 67 % 11.4 C
1117 08-06-2020 21:00:00 17.4 C 69 % 11.66 C
1118 08-06-2020 21:05:00 17.2 C 69 % 11.47 C
1119 08-06-2020 21:10:00 16.9 C 70 % 11.4 C
1120 08-06-2020 21:15:00 16.8 C 70 % 11.3 C
1121 08-06-2020 21:20:00 16.4 C 69 % 10.7 C
1122 08-06-2020 21:25:00 16.1 C 69 % 10.42 C
1123 08-06-2020 21:30:00 15.9 C 70 % 10.44 C
1124 08-06-2020 21:35:00 15.7 C 70 % 10.25 C
1125 08-06-2020 21:40:00 15.6 C 71 % 10.37 C
Sensor: Nr:Datum:Temp:Feuchte:Taupunkt:
Aussen-T/F 1126 08-06-2020 21:45:00 15.3 C 72 % 10.29 C
1127 08-06-2020 21:50:00 15.2 C 74 % 10.6 C
1128 08-06-2020 21:55:00 14.9 C 73 % 10.11 C
1129 08-06-2020 22:00:00 14.8 C 74 % 10.22 C
1130 08-06-2020 22:05:00 14.7 C 75 % 10.32 C
1131 08-06-2020 22:10:00 14.4 C 76 % 10.23 C
1132 08-06-2020 22:15:00 14.3 C 76 % 10.13 C
1133 08-06-2020 22:20:00 14.1 C 77 % 10.13 C
1134 08-06-2020 22:25:00 13.9 C 77 % 9.94 C
1135 08-06-2020 22:30:00 13.7 C 77 % 9.75 C
1136 08-06-2020 22:35:00 13.6 C 77 % 9.65 C
1137 08-06-2020 22:40:00 13.3 C 78 % 9.55 C
1138 08-06-2020 22:45:00 13.1 C 78 % 9.36 C
1139 08-06-2020 22:50:00 12.9 C 79 % 9.35 C
1140 08-06-2020 22:55:00 12.8 C 80 % 9.44 C
1141 08-06-2020 23:00:00 12.6 C 80 % 9.25 C
1142 08-06-2020 23:05:00 12.5 C 81 % 9.33 C
1143 08-06-2020 23:10:00 12.3 C 81 % 9.14 C
1144 08-06-2020 23:15:00 12.2 C 82 % 9.22 C
1145 08-06-2020 23:20:00 12.1 C 82 % 9.12 C
1146 08-06-2020 23:25:00 12.1 C 83 % 9.3 C
1147 08-06-2020 23:30:00 11.9 C 83 % 9.11 C
1148 08-06-2020 23:35:00 11.9 C 83 % 9.11 C
1149 08-06-2020 23:40:00 11.8 C 83 % 9.01 C
1150 08-06-2020 23:45:00 11.8 C 84 % 9.19 C
Sensor: Nr:Datum:Temp:Feuchte:Taupunkt:
Aussen-T/F 1151 08-06-2020 23:50:00 11.8 C 84 % 9.19 C
1152 08-06-2020 23:55:00 11.7 C 84 % 9.09 C
1153 09-06-2020 00:00:00 11.7 C 85 % 9.27 C
1154 09-06-2020 00:05:00 11.7 C 85 % 9.27 C
1155 09-06-2020 00:10:00 11.7 C 85 % 9.27 C
1156 09-06-2020 00:15:00 11.7 C 85 % 9.27 C
1157 09-06-2020 00:20:00 11.7 C 85 % 9.27 C
1158 09-06-2020 00:25:00 11.7 C 85 % 9.27 C
1159 09-06-2020 00:30:00 11.6 C 85 % 9.17 C
1160 09-06-2020 00:35:00 11.6 C 86 % 9.34 C
1161 09-06-2020 00:40:00 11.5 C 86 % 9.24 C
1162 09-06-2020 00:45:00 11.4 C 86 % 9.14 C
1163 09-06-2020 00:50:00 11.3 C 86 % 9.05 C
1164 09-06-2020 00:55:00 11.3 C 86 % 9.05 C
1165 09-06-2020 01:00:00 11.2 C 87 % 9.12 C
1166 09-06-2020 01:05:00 11.2 C 87 % 9.12 C
1167 09-06-2020 01:10:00 11.1 C 87 % 9.02 C
1168 09-06-2020 01:15:00 10.9 C 87 % 8.82 C
1169 09-06-2020 01:20:00 10.8 C 88 % 8.89 C
1170 09-06-2020 01:25:00 10.8 C 88 % 8.89 C
1171 09-06-2020 01:30:00 10.7 C 89 % 8.96 C
1172 09-06-2020 01:35:00 10.7 C 89 % 8.96 C
1173 09-06-2020 01:40:00 10.6 C 89 % 8.86 C
1174 09-06-2020 01:45:00 10.4 C 89 % 8.67 C
1175 09-06-2020 01:50:00 10.4 C 90 % 8.83 C
Sensor: Nr:Datum:Temp:Feuchte:Taupunkt:
Aussen-T/F 1176 09-06-2020 01:55:00 10.3 C 90 % 8.73 C
1177 09-06-2020 02:00:00 10.3 C 90 % 8.73 C
1178 09-06-2020 02:05:00 10.2 C 90 % 8.64 C
1179 09-06-2020 02:10:00 10.1 C 90 % 8.54 C
1180 09-06-2020 02:15:00 10.1 C 91 % 8.7 C
1181 09-06-2020 02:20:00 10 C 91 % 8.6 C
1182 09-06-2020 02:25:00 9.9 C 91 % 8.5 C
1183 09-06-2020 02:30:00 9.9 C 91 % 8.5 C
1184 09-06-2020 02:35:00 9.9 C 92 % 8.66 C
1185 09-06-2020 02:40:00 9.9 C 92 % 8.66 C
1186 09-06-2020 02:45:00 9.8 C 92 % 8.56 C
1187 09-06-2020 02:50:00 9.8 C 92 % 8.56 C
1188 09-06-2020 02:55:00 9.8 C 92 % 8.56 C
1189 09-06-2020 03:00:00 9.8 C 92 % 8.56 C
1190 09-06-2020 03:05:00 9.8 C 92 % 8.56 C
1191 09-06-2020 03:10:00 9.8 C 93 % 8.72 C
1192 09-06-2020 03:15:00 9.8 C 93 % 8.72 C
1193 09-06-2020 03:20:00 9.8 C 93 % 8.72 C
1194 09-06-2020 03:25:00 9.8 C 93 % 8.72 C
1195 09-06-2020 03:30:00 9.8 C 93 % 8.72 C
1196 09-06-2020 03:35:00 9.9 C 93 % 8.82 C
1197 09-06-2020 03:40:00 9.8 C 93 % 8.72 C
1198 09-06-2020 03:45:00 9.8 C 93 % 8.72 C
1199 09-06-2020 03:50:00 9.8 C 93 % 8.72 C
1200 09-06-2020 03:55:00 9.7 C 93 % 8.62 C
Sensor: Nr:Datum:Temp:Feuchte:Taupunkt:
Aussen-T/F 1201 09-06-2020 04:00:00 9.7 C 93 % 8.62 C
1202 09-06-2020 04:05:00 9.6 C 93 % 8.53 C
1203 09-06-2020 04:10:00 9.6 C 93 % 8.53 C
1204 09-06-2020 04:15:00 9.6 C 93 % 8.53 C
1205 09-06-2020 04:20:00 9.6 C 94 % 8.68 C
1206 09-06-2020 04:25:00 9.7 C 94 % 8.78 C
1207 09-06-2020 04:30:00 9.8 C 94 % 8.88 C
1208 09-06-2020 04:35:00 9.9 C 95 % 9.14 C
1209 09-06-2020 04:40:00 10.2 C 95 % 9.44 C
1210 09-06-2020 04:45:00 10.3 C 95 % 9.54 C
1211 09-06-2020 04:50:00 10.3 C 95 % 9.54 C
1212 09-06-2020 04:55:00 10.4 C 95 % 9.63 C
1213 09-06-2020 05:00:00 10.4 C 95 % 9.63 C
1214 09-06-2020 05:05:00 10.4 C 95 % 9.63 C
1215 09-06-2020 05:10:00 10.5 C 95 % 9.73 C
1216 09-06-2020 05:15:00 10.6 C 95 % 9.83 C
1217 09-06-2020 05:20:00 10.6 C 95 % 9.83 C
1218 09-06-2020 05:25:00 10.7 C 95 % 9.93 C
1219 09-06-2020 05:30:00 10.7 C 95 % 9.93 C
1220 09-06-2020 05:35:00 10.7 C 95 % 9.93 C
1221 09-06-2020 05:40:00 10.8 C 95 % 10.03 C
1222 09-06-2020 05:45:00 10.9 C 95 % 10.13 C
1223 09-06-2020 05:50:00 11 C 95 % 10.23 C
1224 09-06-2020 05:55:00 11.1 C 95 % 10.33 C
1225 09-06-2020 06:00:00 11.1 C 95 % 10.33 C
Sensor: Nr:Datum:Temp:Feuchte:Taupunkt:
Aussen-T/F 1226 09-06-2020 06:05:00 11.2 C 95 % 10.43 C
1227 09-06-2020 06:10:00 11.3 C 95 % 10.53 C
1228 09-06-2020 06:15:00 11.3 C 95 % 10.53 C
1229 09-06-2020 06:20:00 11.3 C 95 % 10.53 C
1230 09-06-2020 06:25:00 11.4 C 95 % 10.63 C
1231 09-06-2020 06:30:00 11.4 C 95 % 10.63 C
1232 09-06-2020 06:35:00 11.4 C 95 % 10.63 C
1233 09-06-2020 06:40:00 11.5 C 95 % 10.73 C
1234 09-06-2020 06:45:00 11.6 C 94 % 10.67 C
1235 09-06-2020 06:50:00 11.6 C 94 % 10.67 C
1236 09-06-2020 06:55:00 11.6 C 94 % 10.67 C
1237 09-06-2020 07:00:00 11.7 C 94 % 10.77 C
1238 09-06-2020 07:05:00 11.7 C 94 % 10.77 C
1239 09-06-2020 07:10:00 11.7 C 94 % 10.77 C
1240 09-06-2020 07:15:00 11.7 C 94 % 10.77 C
1241 09-06-2020 07:20:00 11.7 C 93 % 10.61 C
1242 09-06-2020 07:25:00 11.8 C 93 % 10.71 C
1243 09-06-2020 07:30:00 11.8 C 93 % 10.71 C
1244 09-06-2020 07:35:00 11.9 C 93 % 10.81 C
1245 09-06-2020 07:40:00 11.9 C 93 % 10.81 C
1246 09-06-2020 07:45:00 12.1 C 93 % 11 C
1247 09-06-2020 07:50:00 12.1 C 93 % 11 C
1248 09-06-2020 07:55:00 12.2 C 93 % 11.1 C
1249 09-06-2020 08:00:00 12.2 C 92 % 10.94 C
1250 09-06-2020 08:05:00 12.2 C 92 % 10.94 C
Sensor: Nr:Datum:Temp:Feuchte:Taupunkt:
Aussen-T/F 1251 09-06-2020 08:10:00 12.3 C 92 % 11.04 C
1252 09-06-2020 08:15:00 12.3 C 92 % 11.04 C
1253 09-06-2020 08:20:00 12.4 C 92 % 11.14 C
1254 09-06-2020 08:25:00 12.4 C 91 % 10.97 C
1255 09-06-2020 08:30:00 12.5 C 91 % 11.07 C
1256 09-06-2020 08:35:00 12.6 C 91 % 11.17 C
1257 09-06-2020 08:40:00 12.7 C 91 % 11.27 C
1258 09-06-2020 08:45:00 12.7 C 91 % 11.27 C
1259 09-06-2020 08:50:00 12.8 C 91 % 11.37 C
1260 09-06-2020 08:55:00 12.9 C 91 % 11.47 C
1261 09-06-2020 09:00:00 13 C 90 % 11.4 C
1262 09-06-2020 09:05:00 13 C 90 % 11.4 C
1263 09-06-2020 09:10:00 13 C 89 % 11.23 C
1264 09-06-2020 09:15:00 13 C 89 % 11.23 C
1265 09-06-2020 09:20:00 13 C 90 % 11.4 C
1266 09-06-2020 09:25:00 13.1 C 90 % 11.5 C
1267 09-06-2020 09:30:00 13.2 C 89 % 11.43 C
1268 09-06-2020 09:35:00 13.3 C 88 % 11.36 C
1269 09-06-2020 09:40:00 13.5 C 88 % 11.55 C
1270 09-06-2020 09:45:00 13.7 C 87 % 11.58 C
1271 09-06-2020 09:50:00 13.8 C 86 % 11.5 C
1272 09-06-2020 09:55:00 14 C 85 % 11.52 C
1273 09-06-2020 10:00:00 14.2 C 85 % 11.72 C
1274 09-06-2020 10:05:00 14.3 C 85 % 11.81 C
1275 09-06-2020 10:10:00 14.5 C 83 % 11.65 C
Sensor: Nr:Datum:Temp:Feuchte:Taupunkt:
Aussen-T/F 1276 09-06-2020 10:15:00 14.7 C 84 % 12.03 C
1277 09-06-2020 10:20:00 15 C 84 % 12.32 C
1278 09-06-2020 10:25:00 15.3 C 82 % 12.25 C
1279 09-06-2020 10:30:00 15.6 C 81 % 12.35 C
1280 09-06-2020 10:35:00 15.8 C 80 % 12.36 C
1281 09-06-2020 10:40:00 15.9 C 79 % 12.27 C
1282 09-06-2020 10:45:00 16.1 C 79 % 12.46 C
1283 09-06-2020 10:50:00 16.1 C 79 % 12.46 C
1284 09-06-2020 10:55:00 16 C 78 % 12.17 C
1285 09-06-2020 11:00:00 16.1 C 78 % 12.27 C
1286 09-06-2020 11:05:00 16.3 C 77 % 12.26 C
1287 09-06-2020 11:10:00 16.5 C 76 % 12.26 C
1288 09-06-2020 11:15:00 16.7 C 76 % 12.45 C
1289 09-06-2020 11:20:00 16.8 C 76 % 12.55 C
1290 09-06-2020 11:25:00 17.1 C 75 % 12.64 C
1291 09-06-2020 11:30:00 17.2 C 76 % 12.94 C
1292 09-06-2020 11:35:00 17.3 C 76 % 13.03 C
1293 09-06-2020 11:40:00 17.3 C 74 % 12.62 C
1294 09-06-2020 11:45:00 17.2 C 75 % 12.73 C
1295 09-06-2020 11:50:00 17.3 C 75 % 12.83 C
1296 09-06-2020 11:55:00 17.6 C 75 % 13.12 C
1297 09-06-2020 12:00:00 17.7 C 73 % 12.8 C
1298 09-06-2020 12:05:00 17.8 C 73 % 12.9 C
1299 09-06-2020 12:10:00 18.1 C 72 % 12.98 C
1300 09-06-2020 12:15:00 18.1 C 73 % 13.19 C
Sensor: Nr:Datum:Temp:Feuchte:Taupunkt:
Aussen-T/F 1301 09-06-2020 12:20:00 18.2 C 71 % 12.86 C
1302 09-06-2020 12:25:00 18.2 C 71 % 12.86 C
1303 09-06-2020 12:30:00 18.2 C 71 % 12.86 C
1304 09-06-2020 12:35:00 18.3 C 72 % 13.17 C
1305 09-06-2020 12:40:00 18.6 C 71 % 13.24 C
1306 09-06-2020 12:45:00 18.8 C 70 % 13.22 C
1307 09-06-2020 12:50:00 19 C 69 % 13.19 C
1308 09-06-2020 12:55:00 19.2 C 68 % 13.15 C
1309 09-06-2020 13:00:00 19.3 C 67 % 13.02 C
1310 09-06-2020 13:05:00 19.2 C 67 % 12.93 C
1311 09-06-2020 13:10:00 19.2 C 68 % 13.15 C
1312 09-06-2020 13:15:00 19.1 C 76 % 14.77 C
1313 09-06-2020 13:20:00 18.7 C 80 % 15.18 C
1314 09-06-2020 13:25:00 18.3 C 84 % 15.55 C
1315 09-06-2020 13:30:00 18 C 86 % 15.62 C
1316 09-06-2020 13:35:00 17.9 C 88 % 15.88 C
1317 09-06-2020 13:40:00 18 C 89 % 16.16 C
1318 09-06-2020 13:45:00 17.8 C 88 % 15.79 C
1319 09-06-2020 13:50:00 17.9 C 89 % 16.06 C
1320 09-06-2020 13:55:00 18 C 89 % 16.16 C
1321 09-06-2020 14:00:00 18 C 87 % 15.8 C
1322 09-06-2020 14:05:00 18.1 C 86 % 15.72 C
1323 09-06-2020 14:10:00 18.1 C 81 % 14.79 C
1324 09-06-2020 14:15:00 18.2 C 81 % 14.89 C
1325 09-06-2020 14:20:00 18.3 C 79 % 14.6 C
Sensor: Nr:Datum:Temp:Feuchte:Taupunkt:
Aussen-T/F 1326 09-06-2020 14:25:00 18.4 C 75 % 13.89 C
1327 09-06-2020 14:30:00 18.6 C 76 % 14.29 C
1328 09-06-2020 14:35:00 18.6 C 74 % 13.88 C
1329 09-06-2020 14:40:00 18.6 C 74 % 13.88 C
1330 09-06-2020 14:45:00 18.6 C 74 % 13.88 C
1331 09-06-2020 14:50:00 18.6 C 72 % 13.46 C
1332 09-06-2020 14:55:00 18.5 C 71 % 13.15 C
1333 09-06-2020 15:00:00 18.3 C 73 % 13.38 C
1334 09-06-2020 15:05:00 18.2 C 74 % 13.49 C
1335 09-06-2020 15:10:00 18.2 C 75 % 13.7 C
1336 09-06-2020 15:15:00 18.2 C 73 % 13.28 C
1337 09-06-2020 15:20:00 18.2 C 72 % 13.07 C
1338 09-06-2020 15:25:00 18.2 C 74 % 13.49 C
1339 09-06-2020 15:30:00 18.1 C 75 % 13.6 C
1340 09-06-2020 15:35:00 17.9 C 75 % 13.41 C
1341 09-06-2020 15:40:00 17.7 C 75 % 13.22 C
1342 09-06-2020 15:45:00 17.4 C 76 % 13.13 C
1343 09-06-2020 15:50:00 17.2 C 77 % 13.14 C
1344 09-06-2020 15:55:00 16.9 C 81 % 13.62 C
1345 09-06-2020 16:00:00 16.6 C 83 % 13.7 C
1346 09-06-2020 16:05:00 16.2 C 85 % 13.68 C
1347 09-06-2020 16:10:00 16 C 86 % 13.66 C
1348 09-06-2020 16:15:00 15.9 C 88 % 13.92 C
1349 09-06-2020 16:20:00 15.8 C 89 % 13.99 C
1350 09-06-2020 16:25:00 15.7 C 90 % 14.06 C
Sensor: Nr:Datum:Temp:Feuchte:Taupunkt:
Aussen-T/F 1351 09-06-2020 16:30:00 15.7 C 91 % 14.24 C
1352 09-06-2020 16:35:00 15.7 C 91 % 14.24 C
1353 09-06-2020 16:40:00 15.7 C 92 % 14.4 C
1354 09-06-2020 16:45:00 15.7 C 92 % 14.4 C
1355 09-06-2020 16:50:00 15.7 C 92 % 14.4 C
1356 09-06-2020 16:55:00 15.8 C 93 % 14.67 C
1357 09-06-2020 17:00:00 15.8 C 93 % 14.67 C
1358 09-06-2020 17:05:00 15.9 C 93 % 14.77 C
1359 09-06-2020 17:10:00 16 C 94 % 15.03 C
1360 09-06-2020 17:15:00 15.9 C 92 % 14.6 C
1361 09-06-2020 17:20:00 15.9 C 92 % 14.6 C
1362 09-06-2020 17:25:00 16.1 C 93 % 14.97 C
1363 09-06-2020 17:30:00 16.1 C 92 % 14.8 C
1364 09-06-2020 17:35:00 16.1 C 92 % 14.8 C
1365 09-06-2020 17:40:00 16.1 C 92 % 14.8 C
1366 09-06-2020 17:45:00 16.1 C 91 % 14.63 C
1367 09-06-2020 17:50:00 16.3 C 93 % 15.17 C
1368 09-06-2020 17:55:00 16.4 C 92 % 15.1 C
1369 09-06-2020 18:00:00 16.3 C 91 % 14.83 C
1370 09-06-2020 18:05:00 16.4 C 92 % 15.1 C
1371 09-06-2020 18:10:00 16.4 C 92 % 15.1 C
1372 09-06-2020 18:15:00 16.4 C 92 % 15.1 C
1373 09-06-2020 18:20:00 16.4 C 92 % 15.1 C
1374 09-06-2020 18:25:00 16.5 C 92 % 15.2 C
1375 09-06-2020 18:30:00 16.4 C 92 % 15.1 C
Sensor: Nr:Datum:Temp:Feuchte:Taupunkt:
Aussen-T/F 1376 09-06-2020 18:35:00 16.3 C 91 % 14.83 C
1377 09-06-2020 18:40:00 16.2 C 91 % 14.73 C
1378 09-06-2020 18:45:00 16.3 C 92 % 15 C
1379 09-06-2020 18:50:00 16.3 C 92 % 15 C
1380 09-06-2020 18:55:00 16.3 C 92 % 15 C
1381 09-06-2020 19:00:00 16.3 C 92 % 15 C
1382 09-06-2020 19:05:00 16.3 C 92 % 15 C
1383 09-06-2020 19:10:00 16.2 C 92 % 14.9 C
1384 09-06-2020 19:15:00 16 C 92 % 14.7 C
1385 09-06-2020 19:20:00 15.8 C 92 % 14.5 C
1386 09-06-2020 19:25:00 15.7 C 92 % 14.4 C
1387 09-06-2020 19:30:00 15.5 C 92 % 14.21 C
1388 09-06-2020 19:35:00 15.3 C 92 % 14.01 C
1389 09-06-2020 19:40:00 15.2 C 92 % 13.91 C
1390 09-06-2020 19:45:00 15.1 C 92 % 13.81 C
1391 09-06-2020 19:50:00 14.9 C 92 % 13.61 C
1392 09-06-2020 19:55:00 14.8 C 92 % 13.51 C
1393 09-06-2020 20:00:00 14.7 C 93 % 13.58 C
1394 09-06-2020 20:05:00 14.7 C 93 % 13.58 C
1395 09-06-2020 20:10:00 14.6 C 93 % 13.48 C
1396 09-06-2020 20:15:00 14.5 C 93 % 13.38 C
1397 09-06-2020 20:20:00 14.4 C 93 % 13.28 C
1398 09-06-2020 20:25:00 14.4 C 93 % 13.28 C
1399 09-06-2020 20:30:00 14.3 C 93 % 13.18 C
1400 09-06-2020 20:35:00 14.3 C 94 % 13.35 C
Sensor: Nr:Datum:Temp:Feuchte:Taupunkt:
Aussen-T/F 1401 09-06-2020 20:40:00 14.2 C 94 % 13.25 C
1402 09-06-2020 20:45:00 14.2 C 94 % 13.25 C
1403 09-06-2020 20:50:00 14.2 C 94 % 13.25 C
1404 09-06-2020 20:55:00 14.2 C 94 % 13.25 C
1405 09-06-2020 21:00:00 14.2 C 95 % 13.41 C
1406 09-06-2020 21:05:00 14.2 C 95 % 13.41 C
1407 09-06-2020 21:10:00 14.2 C 95 % 13.41 C
1408 09-06-2020 21:15:00 14.2 C 95 % 13.41 C
1409 09-06-2020 21:20:00 14.2 C 95 % 13.41 C
1410 09-06-2020 21:25:00 14.2 C 95 % 13.41 C
1411 09-06-2020 21:30:00 14.2 C 95 % 13.41 C
1412 09-06-2020 21:35:00 14.1 C 95 % 13.31 C
1413 09-06-2020 21:40:00 14.1 C 95 % 13.31 C
1414 09-06-2020 21:45:00 14.1 C 95 % 13.31 C
1415 09-06-2020 21:50:00 14 C 95 % 13.21 C
1416 09-06-2020 21:55:00 13.9 C 95 % 13.11 C
1417 09-06-2020 22:00:00 13.9 C 95 % 13.11 C
1418 09-06-2020 22:05:00 13.8 C 95 % 13.01 C
1419 09-06-2020 22:10:00 13.7 C 95 % 12.91 C
1420 09-06-2020 22:15:00 13.6 C 95 % 12.81 C
1421 09-06-2020 22:20:00 13.5 C 95 % 12.72 C
1422 09-06-2020 22:25:00 13.4 C 94 % 12.45 C
1423 09-06-2020 22:30:00 13.3 C 94 % 12.36 C
1424 09-06-2020 22:35:00 13.2 C 95 % 12.42 C
1425 09-06-2020 22:40:00 13.2 C 95 % 12.42 C
Sensor: Nr:Datum:Temp:Feuchte:Taupunkt:
Aussen-T/F 1426 09-06-2020 22:45:00 13.1 C 95 % 12.32 C
1427 09-06-2020 22:50:00 13.1 C 95 % 12.32 C
1428 09-06-2020 22:55:00 13 C 95 % 12.22 C
1429 09-06-2020 23:00:00 13 C 95 % 12.22 C
1430 09-06-2020 23:05:00 12.9 C 95 % 12.12 C
1431 09-06-2020 23:10:00 12.9 C 95 % 12.12 C
1432 09-06-2020 23:15:00 12.9 C 95 % 12.12 C
1433 09-06-2020 23:20:00 12.9 C 95 % 12.12 C
1434 09-06-2020 23:25:00 12.9 C 95 % 12.12 C
1435 09-06-2020 23:30:00 13 C 96 % 12.38 C
1436 09-06-2020 23:35:00 13 C 96 % 12.38 C
1437 09-06-2020 23:40:00 13 C 96 % 12.38 C
1438 09-06-2020 23:45:00 13 C 96 % 12.38 C
1439 09-06-2020 23:50:00 13.1 C 96 % 12.48 C
1440 09-06-2020 23:55:00 13 C 96 % 12.38 C
1441 10-06-2020 00:00:00 13.1 C 96 % 12.48 C
1442 10-06-2020 00:05:00 13.1 C 96 % 12.48 C
1443 10-06-2020 00:10:00 13 C 96 % 12.38 C
1444 10-06-2020 00:15:00 13 C 96 % 12.38 C
1445 10-06-2020 00:20:00 12.9 C 96 % 12.28 C
1446 10-06-2020 00:25:00 12.9 C 96 % 12.28 C
1447 10-06-2020 00:30:00 12.8 C 95 % 12.02 C
1448 10-06-2020 00:35:00 12.8 C 95 % 12.02 C
1449 10-06-2020 00:40:00 12.8 C 95 % 12.02 C
1450 10-06-2020 00:45:00 12.8 C 96 % 12.18 C
Sensor: Nr:Datum:Temp:Feuchte:Taupunkt:
Aussen-T/F 1451 10-06-2020 00:50:00 12.8 C 96 % 12.18 C
1452 10-06-2020 00:55:00 12.8 C 96 % 12.18 C
1453 10-06-2020 01:00:00 12.8 C 96 % 12.18 C
1454 10-06-2020 01:05:00 12.8 C 96 % 12.18 C
1455 10-06-2020 01:10:00 12.8 C 96 % 12.18 C
1456 10-06-2020 01:15:00 12.7 C 96 % 12.08 C
1457 10-06-2020 01:20:00 12.7 C 96 % 12.08 C
1458 10-06-2020 01:25:00 12.7 C 96 % 12.08 C
1459 10-06-2020 01:30:00 12.6 C 96 % 11.98 C
1460 10-06-2020 01:35:00 12.4 C 95 % 11.62 C
1461 10-06-2020 01:40:00 12.4 C 95 % 11.62 C
1462 10-06-2020 01:45:00 12.3 C 96 % 11.68 C
1463 10-06-2020 01:50:00 12.3 C 96 % 11.68 C
1464 10-06-2020 01:55:00 12.3 C 96 % 11.68 C
1465 10-06-2020 02:00:00 12.3 C 96 % 11.68 C
1466 10-06-2020 02:05:00 12.3 C 96 % 11.68 C
1467 10-06-2020 02:10:00 12.3 C 96 % 11.68 C
1468 10-06-2020 02:15:00 12.3 C 96 % 11.68 C
1469 10-06-2020 02:20:00 12.3 C 96 % 11.68 C
1470 10-06-2020 02:25:00 12.3 C 96 % 11.68 C
1471 10-06-2020 02:30:00 12.3 C 96 % 11.68 C
1472 10-06-2020 02:35:00 12.3 C 96 % 11.68 C
1473 10-06-2020 02:40:00 12.3 C 96 % 11.68 C
1474 10-06-2020 02:45:00 12.3 C 96 % 11.68 C
1475 10-06-2020 02:50:00 12.3 C 96 % 11.68 C
Sensor: Nr:Datum:Temp:Feuchte:Taupunkt:
Aussen-T/F 1476 10-06-2020 02:55:00 12.4 C 96 % 11.78 C
1477 10-06-2020 03:00:00 12.4 C 96 % 11.78 C
1478 10-06-2020 03:05:00 12.5 C 96 % 11.88 C
1479 10-06-2020 03:10:00 12.5 C 96 % 11.88 C
1480 10-06-2020 03:15:00 12.6 C 96 % 11.98 C
1481 10-06-2020 03:20:00 12.6 C 96 % 11.98 C
1482 10-06-2020 03:25:00 12.6 C 96 % 11.98 C
1483 10-06-2020 03:30:00 12.6 C 96 % 11.98 C
1484 10-06-2020 03:35:00 12.6 C 96 % 11.98 C
1485 10-06-2020 03:40:00 12.6 C 96 % 11.98 C
1486 10-06-2020 03:45:00 12.6 C 96 % 11.98 C
1487 10-06-2020 03:50:00 12.6 C 96 % 11.98 C
1488 10-06-2020 03:55:00 12.6 C 96 % 11.98 C
1489 10-06-2020 04:00:00 12.6 C 96 % 11.98 C
1490 10-06-2020 04:05:00 12.6 C 96 % 11.98 C
1491 10-06-2020 04:10:00 12.6 C 96 % 11.98 C
1492 10-06-2020 04:15:00 12.6 C 96 % 11.98 C
1493 10-06-2020 04:20:00 12.6 C 96 % 11.98 C
1494 10-06-2020 04:25:00 12.6 C 96 % 11.98 C
1495 10-06-2020 04:30:00 12.6 C 96 % 11.98 C
1496 10-06-2020 04:35:00 12.6 C 96 % 11.98 C
1497 10-06-2020 04:40:00 12.6 C 96 % 11.98 C
1498 10-06-2020 04:45:00 12.6 C 96 % 11.98 C
1499 10-06-2020 04:50:00 12.6 C 96 % 11.98 C
1500 10-06-2020 04:55:00 12.6 C 96 % 11.98 C
Sensor: Nr:Datum:Temp:Feuchte:Taupunkt:
Aussen-T/F 1501 10-06-2020 05:00:00 12.6 C 96 % 11.98 C
1502 10-06-2020 05:05:00 12.6 C 96 % 11.98 C
1503 10-06-2020 05:10:00 12.7 C 96 % 12.08 C
1504 10-06-2020 05:15:00 12.7 C 96 % 12.08 C
1505 10-06-2020 05:20:00 12.7 C 96 % 12.08 C
1506 10-06-2020 05:25:00 12.7 C 96 % 12.08 C
1507 10-06-2020 05:30:00 12.7 C 96 % 12.08 C
1508 10-06-2020 05:35:00 12.7 C 96 % 12.08 C
1509 10-06-2020 05:40:00 12.7 C 96 % 12.08 C
1510 10-06-2020 05:45:00 12.7 C 96 % 12.08 C
1511 10-06-2020 05:50:00 12.7 C 96 % 12.08 C
1512 10-06-2020 05:55:00 12.7 C 96 % 12.08 C
1513 10-06-2020 06:00:00 12.7 C 97 % 12.24 C
1514 10-06-2020 06:05:00 12.7 C 97 % 12.24 C
1515 10-06-2020 06:10:00 12.8 C 97 % 12.34 C
1516 10-06-2020 06:15:00 12.8 C 97 % 12.34 C
1517 10-06-2020 06:20:00 12.8 C 97 % 12.34 C
1518 10-06-2020 06:25:00 12.9 C 97 % 12.44 C
1519 10-06-2020 06:30:00 12.9 C 97 % 12.44 C
1520 10-06-2020 06:35:00 13 C 97 % 12.54 C
1521 10-06-2020 06:40:00 13.1 C 97 % 12.63 C
1522 10-06-2020 06:45:00 13.2 C 97 % 12.73 C
1523 10-06-2020 06:50:00 13.2 C 97 % 12.73 C
1524 10-06-2020 06:55:00 13.3 C 97 % 12.83 C
1525 10-06-2020 07:00:00 13.3 C 97 % 12.83 C
Sensor: Nr:Datum:Temp:Feuchte:Taupunkt:
Aussen-T/F 1526 10-06-2020 07:05:00 13.3 C 97 % 12.83 C
1527 10-06-2020 07:10:00 13.3 C 97 % 12.83 C
1528 10-06-2020 07:15:00 13.3 C 97 % 12.83 C
1529 10-06-2020 07:20:00 13.4 C 97 % 12.93 C
1530 10-06-2020 07:25:00 13.3 C 96 % 12.68 C
1531 10-06-2020 07:30:00 13.3 C 96 % 12.68 C
1532 10-06-2020 07:35:00 13.4 C 97 % 12.93 C
1533 10-06-2020 07:40:00 13.4 C 97 % 12.93 C
1534 10-06-2020 07:45:00 13.4 C 96 % 12.78 C
1535 10-06-2020 07:50:00 13.5 C 96 % 12.87 C
1536 10-06-2020 07:55:00 13.6 C 96 % 12.97 C
1537 10-06-2020 08:00:00 13.6 C 96 % 12.97 C
1538 10-06-2020 08:05:00 13.6 C 96 % 12.97 C
1539 10-06-2020 08:10:00 13.7 C 96 % 13.07 C
1540 10-06-2020 08:15:00 13.7 C 96 % 13.07 C
1541 10-06-2020 08:20:00 13.8 C 96 % 13.17 C
1542 10-06-2020 08:25:00 13.8 C 96 % 13.17 C
1543 10-06-2020 08:30:00 13.8 C 96 % 13.17 C
1544 10-06-2020 08:35:00 13.9 C 96 % 13.27 C
1545 10-06-2020 08:40:00 14 C 96 % 13.37 C
1546 10-06-2020 08:45:00 14.1 C 96 % 13.47 C
1547 10-06-2020 08:50:00 14.1 C 95 % 13.31 C
1548 10-06-2020 08:55:00 14.2 C 95 % 13.41 C
1549 10-06-2020 09:00:00 14.3 C 95 % 13.51 C
1550 10-06-2020 09:05:00 14.3 C 95 % 13.51 C
Sensor: Nr:Datum:Temp:Feuchte:Taupunkt:
Aussen-T/F 1551 10-06-2020 09:10:00 14.5 C 94 % 13.55 C
1552 10-06-2020 09:15:00 14.6 C 93 % 13.48 C
1553 10-06-2020 09:20:00 14.7 C 93 % 13.58 C
1554 10-06-2020 09:25:00 14.8 C 92 % 13.51 C
1555 10-06-2020 09:30:00 14.9 C 92 % 13.61 C
1556 10-06-2020 09:35:00 15.1 C 91 % 13.64 C
1557 10-06-2020 09:40:00 15.1 C 91 % 13.64 C
1558 10-06-2020 09:45:00 15.2 C 90 % 13.57 C
1559 10-06-2020 09:50:00 15.2 C 89 % 13.4 C
1560 10-06-2020 09:55:00 15.3 C 89 % 13.5 C
1561 10-06-2020 10:00:00 15.3 C 89 % 13.5 C
1562 10-06-2020 10:05:00 15.3 C 88 % 13.33 C
1563 10-06-2020 10:10:00 15.4 C 88 % 13.42 C
1564 10-06-2020 10:15:00 15.4 C 88 % 13.42 C
1565 10-06-2020 10:20:00 15.6 C 88 % 13.62 C
1566 10-06-2020 10:25:00 15.6 C 87 % 13.45 C
1567 10-06-2020 10:30:00 15.6 C 87 % 13.45 C
1568 10-06-2020 10:35:00 15.6 C 87 % 13.45 C
1569 10-06-2020 10:40:00 15.6 C 87 % 13.45 C
1570 10-06-2020 10:45:00 15.7 C 87 % 13.54 C
1571 10-06-2020 10:50:00 15.7 C 87 % 13.54 C
1572 10-06-2020 10:55:00 15.7 C 86 % 13.37 C
1573 10-06-2020 11:00:00 15.7 C 87 % 13.54 C
1574 10-06-2020 11:05:00 15.8 C 86 % 13.46 C
1575 10-06-2020 11:10:00 15.8 C 86 % 13.46 C
Sensor: Nr:Datum:Temp:Feuchte:Taupunkt:
Aussen-T/F 1576 10-06-2020 11:15:00 15.8 C 86 % 13.46 C
1577 10-06-2020 11:20:00 15.8 C 86 % 13.46 C
1578 10-06-2020 11:25:00 15.7 C 86 % 13.37 C
1579 10-06-2020 11:30:00 15.7 C 86 % 13.37 C
1580 10-06-2020 11:35:00 15.7 C 86 % 13.37 C
1581 10-06-2020 11:40:00 15.8 C 87 % 13.64 C
1582 10-06-2020 11:45:00 15.8 C 88 % 13.82 C
1583 10-06-2020 11:50:00 15.7 C 88 % 13.72 C
1584 10-06-2020 11:55:00 15.7 C 88 % 13.72 C
1585 10-06-2020 12:00:00 15.6 C 87 % 13.45 C
1586 10-06-2020 12:05:00 15.5 C 86 % 13.17 C
1587 10-06-2020 12:10:00 15.4 C 85 % 12.89 C
1588 10-06-2020 12:15:00 15.4 C 85 % 12.89 C
1589 10-06-2020 12:20:00 15.4 C 86 % 13.07 C
1590 10-06-2020 12:25:00 15.4 C 86 % 13.07 C
1591 10-06-2020 12:30:00 15.4 C 86 % 13.07 C
1592 10-06-2020 12:35:00 15.4 C 85 % 12.89 C
1593 10-06-2020 12:40:00 15.5 C 86 % 13.17 C
1594 10-06-2020 12:45:00 15.6 C 86 % 13.27 C
1595 10-06-2020 12:50:00 15.6 C 85 % 13.09 C
1596 10-06-2020 12:55:00 15.5 C 85 % 12.99 C
1597 10-06-2020 13:00:00 15.4 C 85 % 12.89 C
1598 10-06-2020 13:05:00 15.5 C 86 % 13.17 C
1599 10-06-2020 13:10:00 15.6 C 85 % 13.09 C
1600 10-06-2020 13:15:00 15.5 C 86 % 13.17 C
Sensor: Nr:Datum:Temp:Feuchte:Taupunkt:
Aussen-T/F 1601 10-06-2020 13:20:00 15.4 C 86 % 13.07 C
1602 10-06-2020 13:25:00 15.4 C 86 % 13.07 C
1603 10-06-2020 13:30:00 15.4 C 85 % 12.89 C
1604 10-06-2020 13:35:00 15.4 C 85 % 12.89 C
1605 10-06-2020 13:40:00 15.6 C 84 % 12.91 C
1606 10-06-2020 13:45:00 15.7 C 85 % 13.19 C
1607 10-06-2020 13:50:00 15.8 C 83 % 12.92 C
1608 10-06-2020 13:55:00 15.9 C 82 % 12.83 C
1609 10-06-2020 14:00:00 16.1 C 82 % 13.03 C
1610 10-06-2020 14:05:00 16.2 C 81 % 12.94 C
1611 10-06-2020 14:10:00 16.3 C 80 % 12.85 C
1612 10-06-2020 14:15:00 16.4 C 81 % 13.13 C
1613 10-06-2020 14:20:00 16.4 C 79 % 12.75 C
1614 10-06-2020 14:25:00 16.4 C 78 % 12.56 C
1615 10-06-2020 14:30:00 16.3 C 78 % 12.46 C
1616 10-06-2020 14:35:00 16.3 C 78 % 12.46 C
1617 10-06-2020 14:40:00 16.4 C 79 % 12.75 C
1618 10-06-2020 14:45:00 16.4 C 78 % 12.56 C
1619 10-06-2020 14:50:00 16.6 C 78 % 12.75 C
1620 10-06-2020 14:55:00 16.6 C 77 % 12.55 C
1621 10-06-2020 15:00:00 16.6 C 77 % 12.55 C
1622 10-06-2020 15:05:00 16.6 C 77 % 12.55 C
1623 10-06-2020 15:10:00 16.7 C 77 % 12.65 C
1624 10-06-2020 15:15:00 16.8 C 78 % 12.94 C
1625 10-06-2020 15:20:00 16.9 C 77 % 12.84 C
Sensor: Nr:Datum:Temp:Feuchte:Taupunkt:
Aussen-T/F 1626 10-06-2020 15:25:00 16.9 C 76 % 12.65 C
1627 10-06-2020 15:30:00 17.1 C 76 % 12.84 C
1628 10-06-2020 15:35:00 17.2 C 76 % 12.94 C
1629 10-06-2020 15:40:00 17.3 C 75 % 12.83 C
1630 10-06-2020 15:45:00 17.5 C 75 % 13.02 C
1631 10-06-2020 15:50:00 17.7 C 76 % 13.42 C
1632 10-06-2020 15:55:00 17.9 C 75 % 13.41 C
1633 10-06-2020 16:00:00 18.1 C 76 % 13.81 C
1634 10-06-2020 16:05:00 18.2 C 74 % 13.49 C
1635 10-06-2020 16:10:00 18.3 C 75 % 13.79 C
1636 10-06-2020 16:15:00 18.4 C 74 % 13.68 C
1637 10-06-2020 16:20:00 18.6 C 74 % 13.88 C
1638 10-06-2020 16:25:00 18.7 C 71 % 13.34 C
1639 10-06-2020 16:30:00 18.9 C 70 % 13.31 C
1640 10-06-2020 16:35:00 18.9 C 70 % 13.31 C
1641 10-06-2020 16:40:00 18.9 C 70 % 13.31 C
1642 10-06-2020 16:45:00 18.9 C 70 % 13.31 C
1643 10-06-2020 16:50:00 18.9 C 69 % 13.09 C
1644 10-06-2020 16:55:00 19 C 69 % 13.19 C
1645 10-06-2020 17:00:00 19 C 69 % 13.19 C
1646 10-06-2020 17:05:00 19.2 C 69 % 13.38 C
1647 10-06-2020 17:10:00 19.2 C 70 % 13.6 C
1648 10-06-2020 17:15:00 19.3 C 70 % 13.69 C
1649 10-06-2020 17:20:00 19.6 C 69 % 13.76 C
1650 10-06-2020 17:25:00 19.7 C 68 % 13.63 C
Sensor: Nr:Datum:Temp:Feuchte:Taupunkt:
Aussen-T/F 1651 10-06-2020 17:30:00 19.9 C 66 % 13.36 C
1652 10-06-2020 17:35:00 20 C 67 % 13.69 C
1653 10-06-2020 17:40:00 20.1 C 69 % 14.24 C
1654 10-06-2020 17:45:00 19.9 C 64 % 12.89 C
1655 10-06-2020 17:50:00 19.8 C 66 % 13.27 C
1656 10-06-2020 17:55:00 19.8 C 65 % 13.03 C
1657 10-06-2020 18:00:00 19.8 C 65 % 13.03 C
1658 10-06-2020 18:05:00 19.8 C 63 % 12.56 C
1659 10-06-2020 18:10:00 19.7 C 64 % 12.7 C
1660 10-06-2020 18:15:00 19.9 C 64 % 12.89 C
1661 10-06-2020 18:20:00 19.9 C 63 % 12.65 C
1662 10-06-2020 18:25:00 19.8 C 65 % 13.03 C
1663 10-06-2020 18:30:00 19.8 C 63 % 12.56 C
1664 10-06-2020 18:35:00 19.8 C 63 % 12.56 C
1665 10-06-2020 18:40:00 19.8 C 65 % 13.03 C
1666 10-06-2020 18:45:00 19.8 C 65 % 13.03 C
1667 10-06-2020 18:50:00 19.9 C 64 % 12.89 C
1668 10-06-2020 18:55:00 19.8 C 64 % 12.8 C
1669 10-06-2020 19:00:00 19.7 C 65 % 12.94 C
1670 10-06-2020 19:05:00 19.6 C 65 % 12.84 C
1671 10-06-2020 19:10:00 19.4 C 66 % 12.89 C
1672 10-06-2020 19:15:00 19.3 C 68 % 13.25 C
1673 10-06-2020 19:20:00 19.4 C 73 % 14.44 C
1674 10-06-2020 19:25:00 19.3 C 70 % 13.69 C
1675 10-06-2020 19:30:00 19.3 C 75 % 14.76 C
Sensor: Nr:Datum:Temp:Feuchte:Taupunkt:
Aussen-T/F 1676 10-06-2020 19:35:00 19.2 C 76 % 14.87 C
1677 10-06-2020 19:40:00 19.2 C 77 % 15.07 C
1678 10-06-2020 19:45:00 19.1 C 78 % 15.18 C
1679 10-06-2020 19:50:00 18.9 C 77 % 14.78 C
1680 10-06-2020 19:55:00 18.9 C 77 % 14.78 C
1681 10-06-2020 20:00:00 18.8 C 79 % 15.08 C
1682 10-06-2020 20:05:00 18.8 C 78 % 14.88 C
1683 10-06-2020 20:10:00 18.8 C 79 % 15.08 C
1684 10-06-2020 20:15:00 18.7 C 79 % 14.99 C
1685 10-06-2020 20:20:00 18.7 C 79 % 14.99 C
1686 10-06-2020 20:25:00 18.6 C 79 % 14.89 C
1687 10-06-2020 20:30:00 18.6 C 79 % 14.89 C
1688 10-06-2020 20:35:00 18.4 C 79 % 14.69 C
1689 10-06-2020 20:40:00 18.3 C 79 % 14.6 C
1690 10-06-2020 20:45:00 18.2 C 78 % 14.3 C
1691 10-06-2020 20:50:00 18.1 C 79 % 14.4 C
1692 10-06-2020 20:55:00 17.9 C 79 % 14.21 C
1693 10-06-2020 21:00:00 17.7 C 79 % 14.01 C
1694 10-06-2020 21:05:00 17.5 C 80 % 14.01 C
1695 10-06-2020 21:10:00 17.3 C 80 % 13.82 C
1696 10-06-2020 21:15:00 17.2 C 80 % 13.72 C
1697 10-06-2020 21:20:00 16.9 C 79 % 13.24 C
1698 10-06-2020 21:25:00 16.7 C 79 % 13.04 C
1699 10-06-2020 21:30:00 16.6 C 79 % 12.95 C
1700 10-06-2020 21:35:00 16.3 C 79 % 12.65 C
Sensor: Nr:Datum:Temp:Feuchte:Taupunkt:
Aussen-T/F 1701 10-06-2020 21:40:00 16.2 C 79 % 12.56 C
1702 10-06-2020 21:45:00 16 C 79 % 12.36 C
1703 10-06-2020 21:50:00 15.9 C 80 % 12.46 C
1704 10-06-2020 21:55:00 15.8 C 79 % 12.17 C
1705 10-06-2020 22:00:00 15.7 C 80 % 12.26 C
1706 10-06-2020 22:05:00 15.7 C 80 % 12.26 C
1707 10-06-2020 22:10:00 15.6 C 81 % 12.35 C
1708 10-06-2020 22:15:00 15.6 C 81 % 12.35 C
1709 10-06-2020 22:20:00 15.5 C 81 % 12.26 C
1710 10-06-2020 22:25:00 15.4 C 82 % 12.35 C
1711 10-06-2020 22:30:00 15.4 C 82 % 12.35 C
1712 10-06-2020 22:35:00 15.3 C 83 % 12.43 C
1713 10-06-2020 22:40:00 15.3 C 83 % 12.43 C
1714 10-06-2020 22:45:00 15.2 C 83 % 12.33 C
1715 10-06-2020 22:50:00 15.2 C 84 % 12.52 C
1716 10-06-2020 22:55:00 15.1 C 84 % 12.42 C
1717 10-06-2020 23:00:00 15.1 C 85 % 12.6 C
1718 10-06-2020 23:05:00 15.1 C 85 % 12.6 C
1719 10-06-2020 23:10:00 15.1 C 85 % 12.6 C
1720 10-06-2020 23:15:00 15.1 C 86 % 12.78 C
1721 10-06-2020 23:20:00 15.1 C 87 % 12.95 C
1722 10-06-2020 23:25:00 15.1 C 87 % 12.95 C
1723 10-06-2020 23:30:00 15.1 C 85 % 12.6 C
1724 10-06-2020 23:35:00 15.2 C 84 % 12.52 C
1725 10-06-2020 23:40:00 15.3 C 84 % 12.61 C
Sensor: Nr:Datum:Temp:Feuchte:Taupunkt:
Aussen-T/F 1726 10-06-2020 23:45:00 15.4 C 83 % 12.53 C
1727 10-06-2020 23:50:00 15.5 C 83 % 12.63 C
1728 10-06-2020 23:55:00 15.6 C 83 % 12.72 C
1729 11-06-2020 00:00:00 15.7 C 84 % 13.01 C
1730 11-06-2020 00:05:00 15.7 C 84 % 13.01 C
1731 11-06-2020 00:10:00 15.7 C 85 % 13.19 C
1732 11-06-2020 00:15:00 15.6 C 85 % 13.09 C
1733 11-06-2020 00:20:00 15.6 C 86 % 13.27 C
1734 11-06-2020 00:25:00 15.4 C 86 % 13.07 C
1735 11-06-2020 00:30:00 15.3 C 86 % 12.97 C
1736 11-06-2020 00:35:00 15.2 C 86 % 12.88 C
1737 11-06-2020 00:40:00 15 C 87 % 12.86 C
1738 11-06-2020 00:45:00 14.9 C 88 % 12.93 C
1739 11-06-2020 00:50:00 14.8 C 88 % 12.83 C
1740 11-06-2020 00:55:00 14.7 C 89 % 12.91 C
1741 11-06-2020 01:00:00 14.6 C 89 % 12.81 C
1742 11-06-2020 01:05:00 14.5 C 89 % 12.71 C
1743 11-06-2020 01:10:00 14.4 C 90 % 12.78 C
1744 11-06-2020 01:15:00 14.3 C 90 % 12.68 C
1745 11-06-2020 01:20:00 14.2 C 90 % 12.58 C
1746 11-06-2020 01:25:00 14.2 C 90 % 12.58 C
1747 11-06-2020 01:30:00 14.1 C 90 % 12.49 C
1748 11-06-2020 01:35:00 14.1 C 91 % 12.65 C
1749 11-06-2020 01:40:00 14 C 91 % 12.56 C
1750 11-06-2020 01:45:00 14 C 91 % 12.56 C
Sensor: Nr:Datum:Temp:Feuchte:Taupunkt:
Aussen-T/F 1751 11-06-2020 01:50:00 14 C 91 % 12.56 C
1752 11-06-2020 01:55:00 14 C 91 % 12.56 C
1753 11-06-2020 02:00:00 13.9 C 92 % 12.62 C
1754 11-06-2020 02:05:00 13.9 C 92 % 12.62 C
1755 11-06-2020 02:10:00 13.9 C 92 % 12.62 C
1756 11-06-2020 02:15:00 13.9 C 92 % 12.62 C
1757 11-06-2020 02:20:00 13.9 C 92 % 12.62 C
1758 11-06-2020 02:25:00 13.9 C 92 % 12.62 C
1759 11-06-2020 02:30:00 13.8 C 93 % 12.69 C
1760 11-06-2020 02:35:00 13.8 C 92 % 12.52 C
1761 11-06-2020 02:40:00 13.8 C 92 % 12.52 C
1762 11-06-2020 02:45:00 13.8 C 93 % 12.69 C
1763 11-06-2020 02:50:00 13.8 C 93 % 12.69 C
1764 11-06-2020 02:55:00 13.7 C 93 % 12.59 C
1765 11-06-2020 03:00:00 13.7 C 93 % 12.59 C
1766 11-06-2020 03:05:00 13.6 C 93 % 12.49 C
1767 11-06-2020 03:10:00 13.6 C 93 % 12.49 C
1768 11-06-2020 03:15:00 13.5 C 93 % 12.39 C
1769 11-06-2020 03:20:00 13.5 C 93 % 12.39 C
1770 11-06-2020 03:25:00 13.4 C 93 % 12.29 C
1771 11-06-2020 03:30:00 13.4 C 93 % 12.29 C
1772 11-06-2020 03:35:00 13.3 C 93 % 12.19 C
1773 11-06-2020 03:40:00 13.2 C 93 % 12.09 C
1774 11-06-2020 03:45:00 13.2 C 93 % 12.09 C
1775 11-06-2020 03:50:00 13.1 C 93 % 11.99 C
Sensor: Nr:Datum:Temp:Feuchte:Taupunkt:
Aussen-T/F 1776 11-06-2020 03:55:00 13.1 C 93 % 11.99 C
1777 11-06-2020 04:00:00 13 C 94 % 12.06 C
1778 11-06-2020 04:05:00 13 C 94 % 12.06 C
1779 11-06-2020 04:10:00 12.9 C 94 % 11.96 C
1780 11-06-2020 04:15:00 12.9 C 93 % 11.8 C
1781 11-06-2020 04:20:00 12.8 C 93 % 11.7 C
1782 11-06-2020 04:25:00 12.8 C 94 % 11.86 C
1783 11-06-2020 04:30:00 12.8 C 94 % 11.86 C
1784 11-06-2020 04:35:00 12.7 C 94 % 11.76 C
1785 11-06-2020 04:40:00 12.7 C 94 % 11.76 C
1786 11-06-2020 04:45:00 12.6 C 94 % 11.66 C
1787 11-06-2020 04:50:00 12.6 C 94 % 11.66 C
1788 11-06-2020 04:55:00 12.5 C 94 % 11.56 C
1789 11-06-2020 05:00:00 12.5 C 94 % 11.56 C
1790 11-06-2020 05:05:00 12.4 C 94 % 11.46 C
1791 11-06-2020 05:10:00 12.4 C 94 % 11.46 C
1792 11-06-2020 05:15:00 12.4 C 94 % 11.46 C
1793 11-06-2020 05:20:00 12.3 C 94 % 11.36 C
1794 11-06-2020 05:25:00 12.3 C 94 % 11.36 C
1795 11-06-2020 05:30:00 12.3 C 94 % 11.36 C
1796 11-06-2020 05:35:00 12.3 C 94 % 11.36 C
1797 11-06-2020 05:40:00 12.3 C 94 % 11.36 C
1798 11-06-2020 05:45:00 12.3 C 95 % 11.52 C
1799 11-06-2020 05:50:00 12.4 C 95 % 11.62 C
1800 11-06-2020 05:55:00 12.4 C 95 % 11.62 C
Sensor: Nr:Datum:Temp:Feuchte:Taupunkt:
Aussen-T/F 1801 11-06-2020 06:00:00 12.4 C 95 % 11.62 C
1802 11-06-2020 06:05:00 12.5 C 95 % 11.72 C
1803 11-06-2020 06:10:00 12.6 C 95 % 11.82 C
1804 11-06-2020 06:15:00 12.6 C 95 % 11.82 C
1805 11-06-2020 06:20:00 12.7 C 95 % 11.92 C
1806 11-06-2020 06:25:00 12.7 C 95 % 11.92 C
1807 11-06-2020 06:30:00 12.8 C 95 % 12.02 C
1808 11-06-2020 06:35:00 12.8 C 95 % 12.02 C
1809 11-06-2020 06:40:00 12.8 C 95 % 12.02 C
1810 11-06-2020 06:45:00 12.9 C 95 % 12.12 C
1811 11-06-2020 06:50:00 13 C 95 % 12.22 C
1812 11-06-2020 06:55:00 13.1 C 95 % 12.32 C
1813 11-06-2020 07:00:00 13.1 C 95 % 12.32 C
1814 11-06-2020 07:05:00 13.1 C 95 % 12.32 C
1815 11-06-2020 07:10:00 13.2 C 95 % 12.42 C
1816 11-06-2020 07:15:00 13.2 C 95 % 12.42 C
1817 11-06-2020 07:20:00 13.3 C 96 % 12.68 C
1818 11-06-2020 07:25:00 13.4 C 96 % 12.78 C
1819 11-06-2020 07:30:00 13.4 C 95 % 12.62 C
1820 11-06-2020 07:35:00 13.6 C 95 % 12.81 C
1821 11-06-2020 07:40:00 13.6 C 96 % 12.97 C
1822 11-06-2020 07:45:00 13.7 C 95 % 12.91 C
1823 11-06-2020 07:50:00 13.7 C 95 % 12.91 C
1824 11-06-2020 07:55:00 13.8 C 95 % 13.01 C
1825 11-06-2020 08:00:00 13.8 C 95 % 13.01 C
Sensor: Nr:Datum:Temp:Feuchte:Taupunkt:
Aussen-T/F 1826 11-06-2020 08:05:00 13.9 C 95 % 13.11 C
1827 11-06-2020 08:10:00 13.9 C 95 % 13.11 C
1828 11-06-2020 08:15:00 13.9 C 95 % 13.11 C
1829 11-06-2020 08:20:00 14 C 95 % 13.21 C
1830 11-06-2020 08:25:00 14 C 95 % 13.21 C
1831 11-06-2020 08:30:00 14.1 C 94 % 13.15 C
1832 11-06-2020 08:35:00 14.1 C 95 % 13.31 C
1833 11-06-2020 08:40:00 14.2 C 95 % 13.41 C
1834 11-06-2020 08:45:00 14.2 C 95 % 13.41 C
1835 11-06-2020 08:50:00 14.2 C 94 % 13.25 C
1836 11-06-2020 08:55:00 14.3 C 94 % 13.35 C
1837 11-06-2020 09:00:00 14.4 C 94 % 13.45 C
1838 11-06-2020 09:05:00 14.5 C 94 % 13.55 C
1839 11-06-2020 09:10:00 14.6 C 94 % 13.65 C
1840 11-06-2020 09:15:00 14.7 C 94 % 13.74 C
1841 11-06-2020 09:20:00 14.9 C 94 % 13.94 C
1842 11-06-2020 09:25:00 14.9 C 93 % 13.78 C
1843 11-06-2020 09:30:00 14.8 C 93 % 13.68 C
1844 11-06-2020 09:35:00 14.7 C 92 % 13.41 C
1845 11-06-2020 09:40:00 14.7 C 92 % 13.41 C
1846 11-06-2020 09:45:00 14.8 C 93 % 13.68 C
1847 11-06-2020 09:50:00 14.9 C 93 % 13.78 C
1848 11-06-2020 09:55:00 14.9 C 92 % 13.61 C
1849 11-06-2020 10:00:00 15 C 92 % 13.71 C
1850 11-06-2020 10:05:00 15.2 C 92 % 13.91 C
Sensor: Nr:Datum:Temp:Feuchte:Taupunkt:
Aussen-T/F 1851 11-06-2020 10:10:00 15.2 C 92 % 13.91 C
1852 11-06-2020 10:15:00 15.3 C 92 % 14.01 C
1853 11-06-2020 10:20:00 15.3 C 91 % 13.84 C
1854 11-06-2020 10:25:00 15.4 C 91 % 13.94 C
1855 11-06-2020 10:30:00 15.6 C 91 % 14.14 C
1856 11-06-2020 10:35:00 15.6 C 91 % 14.14 C
1857 11-06-2020 10:40:00 15.7 C 91 % 14.24 C
1858 11-06-2020 10:45:00 15.8 C 90 % 14.16 C
1859 11-06-2020 10:50:00 15.9 C 90 % 14.26 C
1860 11-06-2020 10:55:00 16 C 89 % 14.19 C
1861 11-06-2020 11:00:00 16.2 C 90 % 14.56 C
1862 11-06-2020 11:05:00 16.3 C 89 % 14.48 C
1863 11-06-2020 11:10:00 16.6 C 89 % 14.78 C
1864 11-06-2020 11:15:00 16.8 C 87 % 14.62 C
1865 11-06-2020 11:20:00 16.9 C 86 % 14.54 C
1866 11-06-2020 11:25:00 16.9 C 85 % 14.36 C
1867 11-06-2020 11:30:00 17.1 C 85 % 14.56 C
1868 11-06-2020 11:35:00 17.1 C 84 % 14.38 C
1869 11-06-2020 11:40:00 17.2 C 83 % 14.29 C
1870 11-06-2020 11:45:00 17.2 C 82 % 14.1 C
1871 11-06-2020 11:50:00 17.3 C 82 % 14.2 C
1872 11-06-2020 11:55:00 17.3 C 81 % 14.01 C
1873 11-06-2020 12:00:00 17.1 C 81 % 13.82 C
1874 11-06-2020 12:05:00 17 C 82 % 13.91 C
1875 11-06-2020 12:10:00 17.1 C 82 % 14 C
Sensor: Nr:Datum:Temp:Feuchte:Taupunkt:
Aussen-T/F 1876 11-06-2020 12:15:00 17.2 C 82 % 14.1 C
1877 11-06-2020 12:20:00 17.3 C 80 % 13.82 C
1878 11-06-2020 12:25:00 17.4 C 80 % 13.92 C
1879 11-06-2020 12:30:00 17.6 C 80 % 14.11 C
1880 11-06-2020 12:35:00 17.6 C 79 % 13.92 C
1881 11-06-2020 12:40:00 17.7 C 78 % 13.82 C
1882 11-06-2020 12:45:00 17.7 C 78 % 13.82 C
1883 11-06-2020 12:50:00 17.8 C 79 % 14.11 C
1884 11-06-2020 12:55:00 17.9 C 77 % 13.81 C
1885 11-06-2020 13:00:00 18.2 C 78 % 14.3 C
1886 11-06-2020 13:05:00 18.3 C 77 % 14.2 C
1887 11-06-2020 13:10:00 18.2 C 76 % 13.9 C
1888 11-06-2020 13:15:00 18.2 C 77 % 14.1 C
1889 11-06-2020 13:20:00 18.2 C 76 % 13.9 C
1890 11-06-2020 13:25:00 18.2 C 77 % 14.1 C
1891 11-06-2020 13:30:00 18.3 C 76 % 14 C
1892 11-06-2020 13:35:00 18.3 C 76 % 14 C
1893 11-06-2020 13:40:00 18.5 C 75 % 13.99 C
1894 11-06-2020 13:45:00 18.6 C 76 % 14.29 C
1895 11-06-2020 13:50:00 18.8 C 75 % 14.28 C
1896 11-06-2020 13:55:00 18.8 C 73 % 13.86 C
1897 11-06-2020 14:00:00 18.8 C 72 % 13.65 C
1898 11-06-2020 14:05:00 18.9 C 74 % 14.17 C
1899 11-06-2020 14:10:00 19.1 C 73 % 14.15 C
1900 11-06-2020 14:15:00 19.1 C 72 % 13.94 C
Sensor: Nr:Datum:Temp:Feuchte:Taupunkt:
Aussen-T/F 1901 11-06-2020 14:20:00 19.2 C 72 % 14.03 C
1902 11-06-2020 14:25:00 19.2 C 72 % 14.03 C
1903 11-06-2020 14:30:00 19.4 C 70 % 13.79 C
1904 11-06-2020 14:35:00 19.5 C 70 % 13.89 C
1905 11-06-2020 14:40:00 19.6 C 70 % 13.98 C
1906 11-06-2020 14:45:00 19.6 C 69 % 13.76 C
1907 11-06-2020 14:50:00 19.6 C 69 % 13.76 C
1908 11-06-2020 14:55:00 19.6 C 70 % 13.98 C
1909 11-06-2020 15:00:00 19.5 C 69 % 13.66 C
1910 11-06-2020 15:05:00 19.4 C 69 % 13.57 C
1911 11-06-2020 15:10:00 19.1 C 69 % 13.28 C
1912 11-06-2020 15:15:00 18.9 C 71 % 13.53 C
1913 11-06-2020 15:20:00 18.8 C 75 % 14.28 C
1914 11-06-2020 15:25:00 18.8 C 76 % 14.48 C
1915 11-06-2020 15:30:00 18.8 C 79 % 15.08 C
1916 11-06-2020 15:35:00 18.7 C 82 % 15.57 C
1917 11-06-2020 15:40:00 18.4 C 80 % 14.89 C
1918 11-06-2020 15:45:00 18.2 C 78 % 14.3 C
1919 11-06-2020 15:50:00 18.1 C 77 % 14.01 C
1920 11-06-2020 15:55:00 18.1 C 75 % 13.6 C
1921 11-06-2020 16:00:00 18.2 C 74 % 13.49 C
1922 11-06-2020 16:05:00 18.3 C 72 % 13.17 C
1923 11-06-2020 16:10:00 18.6 C 70 % 13.02 C
1924 11-06-2020 16:15:00 18.7 C 70 % 13.12 C
1925 11-06-2020 16:20:00 18.8 C 68 % 12.77 C
Sensor: Nr:Datum:Temp:Feuchte:Taupunkt:
Aussen-T/F 1926 11-06-2020 16:25:00 18.9 C 68 % 12.87 C
1927 11-06-2020 16:30:00 19.1 C 67 % 12.83 C
1928 11-06-2020 16:35:00 19.2 C 67 % 12.93 C
1929 11-06-2020 16:40:00 19.4 C 65 % 12.66 C
1930 11-06-2020 16:45:00 19.5 C 65 % 12.75 C
1931 11-06-2020 16:50:00 19.6 C 65 % 12.84 C
1932 11-06-2020 16:55:00 19.6 C 63 % 12.37 C
1933 11-06-2020 17:00:00 19.4 C 65 % 12.66 C
1934 11-06-2020 17:05:00 19.4 C 65 % 12.66 C
1935 11-06-2020 17:10:00 19.3 C 66 % 12.79 C
1936 11-06-2020 17:15:00 19.3 C 66 % 12.79 C
1937 11-06-2020 17:20:00 19.2 C 67 % 12.93 C
1938 11-06-2020 17:25:00 19.1 C 68 % 13.06 C
1939 11-06-2020 17:30:00 19.1 C 69 % 13.28 C
1940 11-06-2020 17:35:00 19.1 C 70 % 13.5 C
1941 11-06-2020 17:40:00 19.1 C 69 % 13.28 C
1942 11-06-2020 17:45:00 19 C 69 % 13.19 C
1943 11-06-2020 17:50:00 19.1 C 74 % 14.36 C
1944 11-06-2020 17:55:00 19.1 C 77 % 14.97 C
1945 11-06-2020 18:00:00 19 C 77 % 14.88 C
1946 11-06-2020 18:05:00 18.9 C 78 % 14.98 C
1947 11-06-2020 18:10:00 18.7 C 77 % 14.59 C
1948 11-06-2020 18:15:00 18.6 C 79 % 14.89 C
1949 11-06-2020 18:20:00 18.4 C 80 % 14.89 C
1950 11-06-2020 18:25:00 18.2 C 81 % 14.89 C
Sensor: Nr:Datum:Temp:Feuchte:Taupunkt:
Aussen-T/F 1951 11-06-2020 18:30:00 18.1 C 80 % 14.6 C
1952 11-06-2020 18:35:00 17.9 C 81 % 14.59 C
1953 11-06-2020 18:40:00 17.8 C 82 % 14.69 C
1954 11-06-2020 18:45:00 17.7 C 82 % 14.59 C
1955 11-06-2020 18:50:00 17.7 C 83 % 14.78 C
1956 11-06-2020 18:55:00 17.5 C 81 % 14.2 C
1957 11-06-2020 19:00:00 17.6 C 80 % 14.11 C
1958 11-06-2020 19:05:00 17.6 C 78 % 13.72 C
1959 11-06-2020 19:10:00 17.6 C 78 % 13.72 C
1960 11-06-2020 19:15:00 17.6 C 78 % 13.72 C
1961 11-06-2020 19:20:00 17.7 C 77 % 13.62 C
1962 11-06-2020 19:25:00 17.7 C 77 % 13.62 C
1963 11-06-2020 19:30:00 17.7 C 78 % 13.82 C
1964 11-06-2020 19:35:00 17.8 C 81 % 14.5 C
1965 11-06-2020 19:40:00 17.8 C 82 % 14.69 C
1966 11-06-2020 19:45:00 17.7 C 82 % 14.59 C
1967 11-06-2020 19:50:00 17.6 C 83 % 14.68 C
1968 11-06-2020 19:55:00 17.6 C 83 % 14.68 C
1969 11-06-2020 20:00:00 17.4 C 83 % 14.48 C
1970 11-06-2020 20:05:00 17.4 C 84 % 14.67 C
1971 11-06-2020 20:10:00 17.3 C 84 % 14.57 C
1972 11-06-2020 20:15:00 17.3 C 85 % 14.76 C
1973 11-06-2020 20:20:00 17.2 C 85 % 14.66 C
1974 11-06-2020 20:25:00 17.1 C 85 % 14.56 C
1975 11-06-2020 20:30:00 17.1 C 85 % 14.56 C
Sensor: Nr:Datum:Temp:Feuchte:Taupunkt:
Aussen-T/F 1976 11-06-2020 20:35:00 17.1 C 85 % 14.56 C
1977 11-06-2020 20:40:00 17 C 86 % 14.64 C
1978 11-06-2020 20:45:00 17 C 85 % 14.46 C
1979 11-06-2020 20:50:00 16.9 C 85 % 14.36 C
1980 11-06-2020 20:55:00 16.9 C 85 % 14.36 C
1981 11-06-2020 21:00:00 16.8 C 85 % 14.26 C
1982 11-06-2020 21:05:00 16.7 C 85 % 14.17 C
1983 11-06-2020 21:10:00 16.5 C 85 % 13.97 C
1984 11-06-2020 21:15:00 16.4 C 85 % 13.87 C
1985 11-06-2020 21:20:00 16.2 C 85 % 13.68 C
1986 11-06-2020 21:25:00 16 C 85 % 13.48 C
1987 11-06-2020 21:30:00 15.8 C 86 % 13.46 C
1988 11-06-2020 21:35:00 15.7 C 86 % 13.37 C
1989 11-06-2020 21:40:00 15.6 C 87 % 13.45 C
1990 11-06-2020 21:45:00 15.3 C 87 % 13.15 C
1991 11-06-2020 21:50:00 15.2 C 87 % 13.05 C
1992 11-06-2020 21:55:00 15 C 87 % 12.86 C
1993 11-06-2020 22:00:00 14.8 C 88 % 12.83 C
1994 11-06-2020 22:05:00 14.7 C 88 % 12.73 C
1995 11-06-2020 22:10:00 14.6 C 88 % 12.64 C
1996 11-06-2020 22:15:00 14.5 C 88 % 12.54 C
1997 11-06-2020 22:20:00 14.4 C 89 % 12.61 C
1998 11-06-2020 22:25:00 14.3 C 89 % 12.51 C
1999 11-06-2020 22:30:00 14.2 C 89 % 12.41 C
2000 11-06-2020 22:35:00 14.1 C 90 % 12.49 C
Sensor: Nr:Datum:Temp:Feuchte:Taupunkt:
Aussen-T/F 2001 11-06-2020 22:40:00 14 C 90 % 12.39 C
2002 11-06-2020 22:45:00 13.9 C 90 % 12.29 C
2003 11-06-2020 22:50:00 13.8 C 90 % 12.19 C
2004 11-06-2020 22:55:00 13.8 C 91 % 12.36 C
2005 11-06-2020 23:00:00 13.7 C 91 % 12.26 C
2006 11-06-2020 23:05:00 13.7 C 91 % 12.26 C
2007 11-06-2020 23:10:00 13.7 C 91 % 12.26 C
2008 11-06-2020 23:15:00 13.6 C 91 % 12.16 C
2009 11-06-2020 23:20:00 13.4 C 91 % 11.96 C
2010 11-06-2020 23:25:00 13.3 C 92 % 12.03 C
2011 11-06-2020 23:30:00 13.3 C 92 % 12.03 C
2012 11-06-2020 23:35:00 13.3 C 92 % 12.03 C
2013 11-06-2020 23:40:00 13.2 C 92 % 11.93 C
2014 11-06-2020 23:45:00 13.1 C 92 % 11.83 C
2015 11-06-2020 23:50:00 13.1 C 92 % 11.83 C
2016 11-06-2020 23:55:00 12.9 C 92 % 11.63 C

Legende:
   Min
   Max


Maximal/Minimal-Werte vom 05.06.2020 - 11.06.2020

Sensor Min Max Avg
Temp
(Aussen-T/F)
7.5 °C
07-06-2020  06:50:00
21.2 °C
08-06-2020  18:50:00
13.89 °C
Feuchte
(Aussen-T/F)
41 %
08-06-2020  14:40:00
97 %
10-06-2020  06:00:00
82.01 %
Taupunkt
(Aussen-T/F)
6.39 C
07-06-2020  06:35:00
16.16 C
09-06-2020  13:40:00
10.64 C

Die Daten stammen von einer Davis Vantage Pro 2 Wetter-Station und werden unter Linux mit der Software wview2wettercgi und aufbereitet. Alle Angaben erfolgen ohne Gewähr für ihre Vollständigkeit oder Richtigkeit.
Kontakt: Rainer Krienke krienke@uni-koblenz.de . Meine Webseiten an der Uni Koblenz oder privat.
Version: $Revision: 0.78 $